Time,TemperatureF,DewpointF,PressureIn,WindDirection,WindDirectionDegrees,WindSpeedMPH,WindSpeedGustMPH,Humidity,HourlyPrecipIn,Conditions,Clouds,dailyrainin,SolarRadiationWatts/m^2,SoftwareType,DateUTC
2013-02-06 00:00:00,31.7,28.0,30.03,NE,38,7.0,7.0,86,0.00,,,0.00,0.00,VWS V14.01,2013-02-06 05:00:00,
2013-02-06 00:05:00,31.6,28.2,30.03,NNE,33,2.0,7.0,87,0.00,,,0.00,0.00,VWS V14.01,2013-02-06 05:05:00,
2013-02-06 00:10:00,31.5,28.1,30.04,NNE,25,2.0,7.0,87,0.00,,,0.00,0.00,VWS V14.01,2013-02-06 05:10:00,
2013-02-06 00:15:00,31.4,28.0,30.05,North,355,5.0,6.0,87,0.00,,,0.00,0.00,VWS V14.01,2013-02-06 05:15:00,
2013-02-06 00:20:00,31.4,28.0,30.05,NE,38,4.0,7.0,87,0.00,,,0.00,0.00,VWS V14.01,2013-02-06 05:20:00,
2013-02-06 00:25:00,31.4,27.7,30.05,NNE,24,5.0,6.0,86,0.00,,,0.00,0.00,VWS V14.01,2013-02-06 05:25:00,
2013-02-06 00:30:00,31.3,27.9,30.05,NNE,17,2.0,4.0,87,0.00,,,0.00,0.00,VWS V14.01,2013-02-06 05:30:00,
2013-02-06 00:35:00,31.2,27.5,30.05,NE,37,2.0,5.0,86,0.00,,,0.00,0.00,VWS V14.01,2013-02-06 05:35:00,
2013-02-06 00:40:00,31.2,27.2,30.06,NE,34,5.0,10.0,85,0.00,,,0.00,0.00,VWS V14.01,2013-02-06 05:40:00,
2013-02-06 00:45:00,31.0,27.0,30.06,NNE,26,3.0,10.0,85,0.00,,,0.00,0.00,VWS V14.01,2013-02-06 05:45:00,
2013-02-06 00:50:00,30.8,27.1,30.06,NE,44,3.0,6.0,86,0.00,,,0.00,0.00,VWS V14.01,2013-02-06 05:50:00,
2013-02-06 00:55:00,30.8,26.8,30.06,NNE,30,3.0,3.0,85,0.00,,,0.00,0.00,VWS V14.01,2013-02-06 05:55:00,
2013-02-06 01:00:00,30.7,26.7,30.07,NE,36,8.0,9.0,85,0.00,,,0.00,0.00,VWS V14.01,2013-02-06 06:00:00,
2013-02-06 01:05:00,30.6,26.1,30.07,NE,44,11.0,11.0,83,0.00,,,0.00,0.00,VWS V14.01,2013-02-06 06:05:00,
2013-02-06 01:10:00,30.5,26.0,30.08,NNE,24,9.0,9.0,83,0.00,,,0.00,0.00,VWS V14.01,2013-02-06 06:10:00,
2013-02-06 01:15:00,30.4,25.6,30.08,NE,41,9.0,9.0,82,0.00,,,0.00,0.00,VWS V14.01,2013-02-06 06:15:00,
2013-02-06 01:20:00,30.3,25.5,30.08,NNE,30,2.0,3.0,82,0.00,,,0.00,0.00,VWS V14.01,2013-02-06 06:20:00,
2013-02-06 01:25:00,30.2,25.4,30.08,NNE,16,4.0,7.0,82,0.00,,,0.00,0.00,VWS V14.01,2013-02-06 06:25:00,
2013-02-06 01:30:00,30.2,25.4,30.08,North,5,2.0,3.0,82,0.00,,,0.00,0.00,VWS V14.01,2013-02-06 06:30:00,
2013-02-06 01:31:00,30.2,25.4,30.08,North,360,7.0,7.0,82,0.00,,,0.00,0.00,VWS V14.01,2013-02-06 06:31:00,
2013-02-06 01:35:00,30.1,25.3,30.08,North,355,2.0,5.0,82,0.00,,,0.00,0.00,VWS V14.01,2013-02-06 06:35:00,
2013-02-06 01:36:00,30.1,25.3,30.08,North,349,5.0,5.0,82,0.00,,,0.00,0.00,VWS V14.01,2013-02-06 06:36:00,
2013-02-06 01:40:00,30.0,24.9,30.08,NE,53,9.0,11.0,81,0.00,,,0.00,0.00,VWS V14.01,2013-02-06 06:40:00,
2013-02-06 01:41:00,30.0,24.9,30.08,NNE,21,5.0,11.0,81,0.00,,,0.00,0.00,VWS V14.01,2013-02-06 06:41:00,
2013-02-06 01:45:00,30.0,24.9,30.09,NNE,28,5.0,5.0,81,0.00,,,0.00,0.00,VWS V14.01,2013-02-06 06:45:00,
2013-02-06 01:46:00,30.0,24.9,30.09,NNE,27,4.0,5.0,81,0.00,,,0.00,0.00,VWS V14.01,2013-02-06 06:46:00,
2013-02-06 01:50:00,30.0,24.9,30.09,NNE,28,6.0,8.0,81,0.00,,,0.00,0.00,VWS V14.01,2013-02-06 06:50:00,
2013-02-06 01:51:00,30.0,24.9,30.09,NNE,22,5.0,8.0,81,0.00,,,0.00,0.00,VWS V14.01,2013-02-06 06:51:00,
2013-02-06 01:55:00,29.9,24.5,30.09,NNE,28,7.0,9.0,80,0.00,,,0.00,0.00,VWS V14.01,2013-02-06 06:55:00,
2013-02-06 01:56:00,29.9,24.5,30.09,NNE,27,6.0,9.0,80,0.00,,,0.00,0.00,VWS V14.01,2013-02-06 06:56:00,
2013-02-06 02:00:00,29.9,24.5,30.09,NNE,30,5.0,6.0,80,0.00,,,0.00,0.00,VWS V14.01,2013-02-06 07:00:00,
2013-02-06 02:01:00,29.9,24.5,30.09,NNE,21,2.0,7.0,80,0.00,,,0.00,0.00,VWS V14.01,2013-02-06 07:01:00,
2013-02-06 02:05:00,29.9,24.8,30.09,NNW,338,4.0,9.0,81,0.00,,,0.00,0.00,VWS V14.01,2013-02-06 07:05:00,
2013-02-06 02:06:00,29.9,24.8,30.09,North,349,5.0,9.0,81,0.00,,,0.00,0.00,VWS V14.01,2013-02-06 07:06:00,
2013-02-06 02:11:00,29.9,24.8,30.10,NNE,18,1.0,4.0,81,0.00,,,0.00,0.00,VWS V14.01,2013-02-06 07:11:00,
2013-02-06 02:16:00,29.9,24.8,30.10,NNE,15,3.0,4.0,81,0.00,,,0.00,0.00,VWS V14.01,2013-02-06 07:16:00,
2013-02-06 02:21:00,29.9,24.8,30.10,NNE,27,3.0,4.0,81,0.00,,,0.00,0.00,VWS V14.01,2013-02-06 07:21:00,
2013-02-06 02:26:00,29.9,24.8,30.10,NE,40,3.0,5.0,81,0.00,,,0.00,0.00,VWS V14.01,2013-02-06 07:26:00,
2013-02-06 02:31:00,29.9,24.5,30.11,North,355,5.0,9.0,80,0.00,,,0.00,0.00,VWS V14.01,2013-02-06 07:31:00,
2013-02-06 02:36:00,29.9,24.5,30.11,North,11,1.0,5.0,80,0.00,,,0.00,0.00,VWS V14.01,2013-02-06 07:36:00,
2013-02-06 02:41:00,30.0,24.6,30.12,North,355,3.0,5.0,80,0.00,,,0.00,0.00,VWS V14.01,2013-02-06 07:41:00,
2013-02-06 02:46:00,29.9,24.2,30.12,NNE,15,9.0,10.0,79,0.00,,,0.00,0.00,VWS V14.01,2013-02-06 07:46:00,
2013-02-06 02:51:00,29.9,24.5,30.12,NNE,23,3.0,3.0,80,0.00,,,0.00,0.00,VWS V14.01,2013-02-06 07:51:00,
2013-02-06 02:56:00,29.9,24.5,30.12,North,360,4.0,4.0,80,0.00,,,0.00,0.00,VWS V14.01,2013-02-06 07:56:00,
2013-02-06 03:01:00,29.9,24.5,30.12,NNE,22,7.0,7.0,80,0.00,,,0.00,0.00,VWS V14.01,2013-02-06 08:01:00,
2013-02-06 03:06:00,29.8,24.4,30.13,North,355,2.0,2.0,80,0.00,,,0.00,0.00,VWS V14.01,2013-02-06 08:06:00,
2013-02-06 03:11:00,29.8,24.4,30.13,NE,34,4.0,5.0,80,0.00,,,0.00,0.00,VWS V14.01,2013-02-06 08:11:00,
2013-02-06 03:16:00,29.8,24.1,30.13,NNE,25,2.0,2.0,79,0.00,,,0.00,0.00,VWS V14.01,2013-02-06 08:16:00,
2013-02-06 03:21:00,29.8,24.1,30.13,NNE,28,3.0,3.0,79,0.00,,,0.00,0.00,VWS V14.01,2013-02-06 08:21:00,
2013-02-06 03:26:00,29.7,24.0,30.13,NNE,19,2.0,2.0,79,0.00,,,0.00,0.00,VWS V14.01,2013-02-06 08:26:00,
2013-02-06 03:31:00,29.7,24.0,30.13,North,5,2.0,2.0,79,0.00,,,0.00,0.00,VWS V14.01,2013-02-06 08:31:00,
2013-02-06 03:36:00,29.7,24.0,30.13,North,355,0.0,1.0,79,0.00,,,0.00,0.00,VWS V14.01,2013-02-06 08:36:00,
2013-02-06 03:37:00,29.7,24.0,30.13,North,355,0.0,1.0,79,0.00,,,0.00,0.00,VWS V14.01,2013-02-06 08:37:00,
2013-02-06 03:41:00,29.6,23.9,30.13,North,355,0.0,2.0,79,0.00,,,0.00,0.00,VWS V14.01,2013-02-06 08:41:00,
2013-02-06 03:42:00,29.7,24.0,30.13,North,355,0.0,2.0,79,0.00,,,0.00,0.00,VWS V14.01,2013-02-06 08:42:00,
2013-02-06 03:46:00,29.6,23.9,30.13,North,5,0.0,1.0,79,0.00,,,0.00,0.00,VWS V14.01,2013-02-06 08:46:00,
2013-02-06 03:47:00,29.6,23.9,30.13,North,5,1.0,2.0,79,0.00,,,0.00,0.00,VWS V14.01,2013-02-06 08:47:00,
2013-02-06 03:51:00,29.6,23.9,30.13,North,5,0.0,0.0,79,0.00,,,0.00,0.00,VWS V14.01,2013-02-06 08:51:00,
2013-02-06 03:52:00,29.6,23.9,30.13,North,5,2.0,2.0,79,0.00,,,0.00,0.00,VWS V14.01,2013-02-06 08:52:00,
2013-02-06 03:56:00,29.6,23.9,30.13,North,5,0.0,2.0,79,0.00,,,0.00,0.00,VWS V14.01,2013-02-06 08:56:00,
2013-02-06 03:57:00,29.6,23.9,30.13,North,5,0.0,2.0,79,0.00,,,0.00,0.00,VWS V14.01,2013-02-06 08:57:00,
2013-02-06 04:01:00,29.6,23.9,30.13,North,5,1.0,1.0,79,0.00,,,0.00,0.00,VWS V14.01,2013-02-06 09:01:00,
2013-02-06 04:02:00,29.6,23.9,30.13,North,5,1.0,2.0,79,0.00,,,0.00,0.00,VWS V14.01,2013-02-06 09:02:00,
2013-02-06 04:06:00,29.6,23.9,30.13,North,5,0.0,0.0,79,0.00,,,0.00,0.00,VWS V14.01,2013-02-06 09:06:00,
2013-02-06 04:07:00,29.6,23.9,30.13,North,5,2.0,2.0,79,0.00,,,0.00,0.00,VWS V14.01,2013-02-06 09:07:00,
2013-02-06 04:11:00,29.5,23.8,30.13,North,5,0.0,0.0,79,0.00,,,0.00,0.00,VWS V14.01,2013-02-06 09:11:00,
2013-02-06 04:12:00,29.5,23.8,30.13,North,5,0.0,0.0,79,0.00,,,0.00,0.00,VWS V14.01,2013-02-06 09:12:00,
2013-02-06 04:16:00,29.6,24.2,30.13,North,5,0.0,1.0,80,0.00,,,0.00,0.00,VWS V14.01,2013-02-06 09:16:00,
2013-02-06 04:17:00,29.6,24.2,30.13,North,5,0.0,0.0,80,0.00,,,0.00,0.00,VWS V14.01,2013-02-06 09:17:00,
2013-02-06 04:21:00,29.5,23.8,30.14,North,5,0.0,0.0,79,0.00,,,0.00,0.00,VWS V14.01,2013-02-06 09:21:00,
2013-02-06 04:22:00,29.5,23.8,30.14,North,5,0.0,0.0,79,0.00,,,0.00,0.00,VWS V14.01,2013-02-06 09:22:00,
2013-02-06 04:26:00,29.4,23.7,30.14,North,5,0.0,1.0,79,0.00,,,0.00,0.00,VWS V14.01,2013-02-06 09:26:00,
2013-02-06 04:27:00,29.4,23.7,30.14,North,5,0.0,0.0,79,0.00,,,0.00,0.00,VWS V14.01,2013-02-06 09:27:00,
2013-02-06 04:31:00,29.4,23.7,30.15,North,5,0.0,0.0,79,0.00,,,0.00,0.00,VWS V14.01,2013-02-06 09:31:00,
2013-02-06 04:32:00,29.4,23.7,30.15,North,5,0.0,0.0,79,0.00,,,0.00,0.00,VWS V14.01,2013-02-06 09:32:00,
2013-02-06 04:36:00,29.4,23.7,30.14,North,5,0.0,0.0,79,0.00,,,0.00,0.00,VWS V14.01,2013-02-06 09:36:00,
2013-02-06 04:37:00,29.4,23.7,30.14,North,5,0.0,0.0,79,0.00,,,0.00,0.00,VWS V14.01,2013-02-06 09:37:00,
2013-02-06 04:41:00,29.4,23.7,30.15,North,5,2.0,3.0,79,0.00,,,0.00,0.00,VWS V14.01,2013-02-06 09:41:00,
2013-02-06 04:42:00,29.4,23.7,30.15,North,5,2.0,3.0,79,0.00,,,0.00,0.00,VWS V14.01,2013-02-06 09:42:00,
2013-02-06 04:46:00,29.4,24.0,30.15,North,5,0.0,0.0,80,0.00,,,0.00,0.00,VWS V14.01,2013-02-06 09:46:00,
2013-02-06 04:47:00,29.4,24.0,30.15,North,5,0.0,0.0,80,0.00,,,0.00,0.00,VWS V14.01,2013-02-06 09:47:00,
2013-02-06 04:52:00,29.3,23.9,30.15,North,5,0.0,0.0,80,0.00,,,0.00,0.00,VWS V14.01,2013-02-06 09:52:00,
2013-02-06 04:53:00,29.3,23.9,30.15,North,5,0.0,2.0,80,0.00,,,0.00,0.00,VWS V14.01,2013-02-06 09:53:00,
2013-02-06 04:57:00,29.3,24.2,30.15,North,5,0.0,0.0,81,0.00,,,0.00,0.00,VWS V14.01,2013-02-06 09:57:00,
2013-02-06 04:58:00,29.3,24.2,30.15,North,5,0.0,0.0,81,0.00,,,0.00,0.00,VWS V14.01,2013-02-06 09:58:00,
2013-02-06 05:02:00,29.3,24.2,30.15,North,5,0.0,0.0,81,0.00,,,0.00,0.00,VWS V14.01,2013-02-06 10:02:00,
2013-02-06 05:03:00,29.3,24.2,30.15,North,5,0.0,2.0,81,0.00,,,0.00,0.00,VWS V14.01,2013-02-06 10:03:00,
2013-02-06 05:07:00,29.3,23.9,30.15,North,5,0.0,0.0,80,0.00,,,0.00,0.00,VWS V14.01,2013-02-06 10:07:00,
2013-02-06 05:08:00,29.3,24.2,30.15,North,5,0.0,1.0,81,0.00,,,0.00,0.00,VWS V14.01,2013-02-06 10:08:00,
2013-02-06 05:12:00,29.3,23.9,30.15,North,5,0.0,0.0,80,0.00,,,0.00,0.00,VWS V14.01,2013-02-06 10:12:00,
2013-02-06 05:13:00,29.2,23.8,30.15,North,5,0.0,1.0,80,0.00,,,0.00,0.00,VWS V14.01,2013-02-06 10:13:00,
2013-02-06 05:17:00,29.2,23.8,30.15,North,5,0.0,0.0,80,0.00,,,0.00,0.00,VWS V14.01,2013-02-06 10:17:00,
2013-02-06 05:18:00,29.2,23.8,30.15,North,5,0.0,2.0,80,0.00,,,0.00,0.00,VWS V14.01,2013-02-06 10:18:00,
2013-02-06 05:22:00,29.2,23.8,30.16,North,5,0.0,0.0,80,0.00,,,0.00,0.00,VWS V14.01,2013-02-06 10:22:00,
2013-02-06 05:23:00,29.2,23.8,30.16,North,5,0.0,0.0,80,0.00,,,0.00,0.00,VWS V14.01,2013-02-06 10:23:00,
2013-02-06 05:27:00,29.2,23.8,30.16,North,5,0.0,0.0,80,0.00,,,0.00,0.00,VWS V14.01,2013-02-06 10:27:00,
2013-02-06 05:28:00,29.2,23.8,30.17,North,5,0.0,1.0,80,0.00,,,0.00,0.00,VWS V14.01,2013-02-06 10:28:00,
2013-02-06 05:32:00,29.2,23.8,30.17,North,5,0.0,0.0,80,0.00,,,0.00,0.00,VWS V14.01,2013-02-06 10:32:00,
2013-02-06 05:33:00,29.2,23.8,30.17,North,5,0.0,0.0,80,0.00,,,0.00,0.00,VWS V14.01,2013-02-06 10:33:00,
2013-02-06 05:37:00,29.2,23.8,30.17,North,5,0.0,2.0,80,0.00,,,0.00,0.00,VWS V14.01,2013-02-06 10:37:00,
2013-02-06 05:38:00,29.2,23.8,30.17,North,5,1.0,1.0,80,0.00,,,0.00,0.00,VWS V14.01,2013-02-06 10:38:00,
2013-02-06 05:42:00,29.2,23.5,30.17,North,5,0.0,0.0,79,0.00,,,0.00,0.00,VWS V14.01,2013-02-06 10:42:00,
2013-02-06 05:43:00,29.3,23.9,30.17,North,5,0.0,2.0,80,0.00,,,0.00,0.00,VWS V14.01,2013-02-06 10:43:00,
2013-02-06 05:45:00,29.2,23.8,30.17,North,5,1.0,1.0,80,0.00,,,0.00,0.00,VWS V14.01,2013-02-06 10:45:00,
2013-02-06 05:47:00,29.3,23.9,30.17,North,5,1.0,2.0,80,0.00,,,0.00,0.00,VWS V14.01,2013-02-06 10:47:00,
2013-02-06 05:48:00,29.2,23.5,30.17,North,5,0.0,1.0,79,0.00,,,0.00,0.00,VWS V14.01,2013-02-06 10:48:00,
2013-02-06 05:50:00,29.2,23.8,30.18,North,5,2.0,3.0,80,0.00,,,0.00,0.00,VWS V14.01,2013-02-06 10:50:00,
2013-02-06 05:52:00,29.3,23.6,30.18,North,5,0.0,3.0,79,0.00,,,0.00,0.00,VWS V14.01,2013-02-06 10:52:00,
2013-02-06 05:54:00,29.3,23.6,30.18,North,5,2.0,4.0,79,0.00,,,0.00,0.00,VWS V14.01,2013-02-06 10:54:00,
2013-02-06 05:55:00,29.3,23.9,30.18,North,5,1.0,1.0,80,0.00,,,0.00,0.00,VWS V14.01,2013-02-06 10:55:00,
2013-02-06 05:57:00,29.3,23.9,30.18,North,5,0.0,1.0,80,0.00,,,0.00,0.00,VWS V14.01,2013-02-06 10:57:00,
2013-02-06 05:58:00,29.3,23.9,30.18,North,5,0.0,1.0,80,0.00,,,0.00,0.00,VWS V14.01,2013-02-06 10:58:00,
2013-02-06 05:59:00,29.3,23.9,30.18,North,5,2.0,2.0,80,0.00,,,0.00,0.00,VWS V14.01,2013-02-06 10:59:00,
2013-02-06 06:00:00,29.3,23.6,30.18,North,5,3.0,4.0,79,0.00,,,0.00,0.00,VWS V14.01,2013-02-06 11:00:00,
2013-02-06 06:02:00,29.3,23.6,30.18,North,5,0.0,3.0,79,0.00,,,0.00,0.00,VWS V14.01,2013-02-06 11:02:00,
2013-02-06 06:03:00,29.3,23.6,30.18,North,355,4.0,4.0,79,0.00,,,0.00,0.00,VWS V14.01,2013-02-06 11:03:00,
2013-02-06 06:04:00,29.3,23.6,30.18,North,355,1.0,4.0,79,0.00,,,0.00,0.00,VWS V14.01,2013-02-06 11:04:00,
2013-02-06 06:05:00,29.3,23.6,30.18,North,355,0.0,1.0,79,0.00,,,0.00,0.00,VWS V14.01,2013-02-06 11:05:00,
2013-02-06 06:07:00,29.3,23.6,30.19,North,355,1.0,1.0,79,0.00,,,0.00,0.00,VWS V14.01,2013-02-06 11:07:00,
2013-02-06 06:08:00,29.3,23.6,30.19,North,355,2.0,2.0,79,0.00,,,0.00,0.00,VWS V14.01,2013-02-06 11:08:00,
2013-02-06 06:09:00,29.3,23.6,30.19,North,355,0.0,3.0,79,0.00,,,0.00,0.00,VWS V14.01,2013-02-06 11:09:00,
2013-02-06 06:10:00,29.3,23.6,30.19,North,355,0.0,0.0,79,0.00,,,0.00,0.00,VWS V14.01,2013-02-06 11:10:00,
2013-02-06 06:12:00,29.3,23.6,30.19,North,355,0.0,1.0,79,0.00,,,0.00,0.00,VWS V14.01,2013-02-06 11:12:00,
2013-02-06 06:13:00,29.3,23.6,30.19,North,355,2.0,3.0,79,0.00,,,0.00,0.00,VWS V14.01,2013-02-06 11:13:00,
2013-02-06 06:14:00,29.3,23.6,30.19,North,355,2.0,3.0,79,0.00,,,0.00,0.00,VWS V14.01,2013-02-06 11:14:00,
2013-02-06 06:15:00,29.3,23.6,30.19,North,355,1.0,3.0,79,0.00,,,0.00,0.00,VWS V14.01,2013-02-06 11:15:00,
2013-02-06 06:17:00,29.3,23.6,30.19,North,355,2.0,2.0,79,0.00,,,0.00,0.00,VWS V14.01,2013-02-06 11:17:00,
2013-02-06 06:18:00,29.3,23.6,30.19,North,355,0.0,2.0,79,0.00,,,0.00,0.00,VWS V14.01,2013-02-06 11:18:00,
2013-02-06 06:19:00,29.3,23.6,30.19,North,355,0.0,2.0,79,0.00,,,0.00,0.00,VWS V14.01,2013-02-06 11:19:00,
2013-02-06 06:20:00,29.3,23.6,30.19,North,355,0.0,1.0,79,0.00,,,0.00,0.00,VWS V14.01,2013-02-06 11:20:00,
2013-02-06 06:22:00,29.3,23.6,30.19,North,355,0.0,0.0,79,0.00,,,0.00,0.00,VWS V14.01,2013-02-06 11:22:00,
2013-02-06 06:23:00,29.3,23.6,30.19,North,355,0.0,0.0,79,0.00,,,0.00,0.00,VWS V14.01,2013-02-06 11:23:00,
2013-02-06 06:24:00,29.3,23.6,30.19,North,355,0.0,0.0,79,0.00,,,0.00,0.00,VWS V14.01,2013-02-06 11:24:00,
2013-02-06 06:25:00,29.3,23.6,30.19,North,355,0.0,0.0,79,0.00,,,0.00,0.00,VWS V14.01,2013-02-06 11:25:00,
2013-02-06 06:27:00,29.3,23.6,30.19,North,355,0.0,0.0,79,0.00,,,0.00,0.00,VWS V14.01,2013-02-06 11:27:00,
2013-02-06 06:28:00,29.3,23.6,30.19,North,355,0.0,0.0,79,0.00,,,0.00,0.00,VWS V14.01,2013-02-06 11:28:00,
2013-02-06 06:29:00,29.3,23.6,30.19,North,355,0.0,0.0,79,0.00,,,0.00,0.00,VWS V14.01,2013-02-06 11:29:00,
2013-02-06 06:31:00,29.3,23.6,30.19,North,355,0.0,0.0,79,0.00,,,0.00,0.00,VWS V14.01,2013-02-06 11:31:00,
2013-02-06 06:32:00,29.3,23.9,30.19,North,355,0.0,1.0,80,0.00,,,0.00,0.00,VWS V14.01,2013-02-06 11:32:00,
2013-02-06 06:33:00,29.3,23.9,30.19,North,355,0.0,0.0,80,0.00,,,0.00,0.00,VWS V14.01,2013-02-06 11:33:00,
2013-02-06 06:34:00,29.3,23.9,30.19,North,355,0.0,0.0,80,0.00,,,0.00,0.00,VWS V14.01,2013-02-06 11:34:00,
2013-02-06 06:36:00,29.3,23.9,30.20,North,355,0.0,0.0,80,0.00,,,0.00,0.00,VWS V14.01,2013-02-06 11:36:00,
2013-02-06 06:37:00,29.2,23.8,30.20,North,355,0.0,0.0,80,0.00,,,0.00,0.00,VWS V14.01,2013-02-06 11:37:00,
2013-02-06 06:39:00,29.2,23.8,30.20,North,355,1.0,1.0,80,0.00,,,0.00,0.00,VWS V14.01,2013-02-06 11:39:00,
2013-02-06 06:41:00,29.2,23.8,30.20,North,355,0.0,0.0,80,0.00,,,0.00,0.00,VWS V14.01,2013-02-06 11:41:00,
2013-02-06 06:42:00,29.2,23.8,30.20,North,355,0.0,0.0,80,0.00,,,0.00,0.00,VWS V14.01,2013-02-06 11:42:00,
2013-02-06 06:44:00,29.2,23.8,30.20,North,355,0.0,0.0,80,0.00,,,0.00,0.00,VWS V14.01,2013-02-06 11:44:00,
2013-02-06 06:46:00,29.2,23.8,30.20,North,355,0.0,1.0,80,0.00,,,0.00,0.00,VWS V14.01,2013-02-06 11:46:00,
2013-02-06 06:47:00,29.2,23.8,30.20,North,355,0.0,2.0,80,0.00,,,0.00,0.00,VWS V14.01,2013-02-06 11:47:00,
2013-02-06 06:49:00,29.2,23.8,30.20,North,355,0.0,0.0,80,0.00,,,0.00,0.00,VWS V14.01,2013-02-06 11:49:00,
2013-02-06 06:51:00,29.2,23.8,30.20,North,355,0.0,0.0,80,0.00,,,0.00,0.00,VWS V14.01,2013-02-06 11:51:00,
2013-02-06 06:52:00,29.2,23.8,30.20,North,355,0.0,0.0,80,0.00,,,0.00,0.00,VWS V14.01,2013-02-06 11:52:00,
2013-02-06 06:54:00,29.2,23.8,30.21,North,355,0.0,0.0,80,0.00,,,0.00,0.00,VWS V14.01,2013-02-06 11:54:00,
2013-02-06 06:56:00,29.2,23.8,30.21,North,355,0.0,0.0,80,0.00,,,0.00,0.00,VWS V14.01,2013-02-06 11:56:00,
2013-02-06 06:58:00,29.2,23.8,30.21,North,355,0.0,0.0,80,0.00,,,0.00,0.00,VWS V14.01,2013-02-06 11:58:00,
2013-02-06 06:59:00,29.2,23.8,30.21,North,355,0.0,0.0,80,0.00,,,0.00,0.00,VWS V14.01,2013-02-06 11:59:00,
2013-02-06 07:01:00,29.2,23.8,30.21,North,355,0.0,0.0,80,0.00,,,0.00,0.00,VWS V14.01,2013-02-06 12:01:00,
2013-02-06 07:03:00,29.2,23.8,30.21,North,355,2.0,2.0,80,0.00,,,0.00,0.00,VWS V14.01,2013-02-06 12:03:00,
2013-02-06 07:04:00,29.2,23.5,30.21,North,355,0.0,0.0,79,0.00,,,0.00,0.00,VWS V14.01,2013-02-06 12:04:00,
2013-02-06 07:06:00,29.2,23.5,30.21,North,355,0.0,0.0,79,0.00,,,0.00,0.00,VWS V14.01,2013-02-06 12:06:00,
2013-02-06 07:08:00,29.2,23.8,30.21,North,355,0.0,0.0,80,0.00,,,0.00,0.00,VWS V14.01,2013-02-06 12:08:00,
2013-02-06 07:09:00,29.2,23.8,30.21,North,355,0.0,0.0,80,0.00,,,0.00,0.00,VWS V14.01,2013-02-06 12:09:00,
2013-02-06 07:11:00,29.2,23.8,30.21,North,355,0.0,0.0,80,0.00,,,0.00,0.00,VWS V14.01,2013-02-06 12:11:00,
2013-02-06 07:13:00,29.2,23.8,30.21,North,355,0.0,0.0,80,0.00,,,0.00,0.00,VWS V14.01,2013-02-06 12:13:00,
2013-02-06 07:14:00,29.2,23.8,30.21,North,355,0.0,0.0,80,0.00,,,0.00,0.00,VWS V14.01,2013-02-06 12:14:00,
2013-02-06 07:16:00,29.2,23.8,30.21,North,355,0.0,0.0,80,0.00,,,0.00,0.00,VWS V14.01,2013-02-06 12:16:00,
2013-02-06 07:18:00,29.2,23.8,30.21,North,355,0.0,0.0,80,0.00,,,0.00,0.00,VWS V14.01,2013-02-06 12:18:00,
2013-02-06 07:19:00,29.2,23.8,30.21,North,355,0.0,0.0,80,0.00,,,0.00,0.00,VWS V14.01,2013-02-06 12:19:00,
2013-02-06 07:21:00,29.2,23.5,30.21,North,355,0.0,0.0,79,0.00,,,0.00,0.00,VWS V14.01,2013-02-06 12:21:00,
2013-02-06 07:23:00,29.2,23.5,30.21,North,355,0.0,0.0,79,0.00,,,0.00,0.00,VWS V14.01,2013-02-06 12:23:00,
2013-02-06 07:24:00,29.2,23.5,30.21,North,355,0.0,0.0,79,0.00,,,0.00,0.00,VWS V14.01,2013-02-06 12:24:00,
2013-02-06 07:26:00,29.2,23.8,30.21,North,355,0.0,1.0,80,0.00,,,0.00,0.00,VWS V14.01,2013-02-06 12:26:00,
2013-02-06 07:28:00,29.2,23.5,30.21,North,355,0.0,1.0,79,0.00,,,0.00,0.00,VWS V14.01,2013-02-06 12:28:00,
2013-02-06 07:29:00,29.2,23.5,30.21,North,355,1.0,2.0,79,0.00,,,0.00,0.00,VWS V14.01,2013-02-06 12:29:00,
2013-02-06 07:31:00,29.2,23.5,30.22,North,355,0.0,0.0,79,0.00,,,0.00,0.00,VWS V14.01,2013-02-06 12:31:00,
2013-02-06 07:33:00,29.2,23.5,30.22,North,355,0.0,0.0,79,0.00,,,0.00,0.00,VWS V14.01,2013-02-06 12:33:00,
2013-02-06 07:34:00,29.2,23.5,30.22,North,355,0.0,2.0,79,0.00,,,0.00,0.00,VWS V14.01,2013-02-06 12:34:00,
2013-02-06 07:35:00,29.2,23.5,30.22,North,355,0.0,2.0,79,0.00,,,0.00,0.00,VWS V14.01,2013-02-06 12:35:00,
2013-02-06 07:36:00,29.2,23.5,30.22,North,355,0.0,0.0,79,0.00,,,0.00,0.00,VWS V14.01,2013-02-06 12:36:00,
2013-02-06 07:38:00,29.2,23.5,30.22,North,355,0.0,0.0,79,0.00,,,0.00,0.00,VWS V14.01,2013-02-06 12:38:00,
2013-02-06 07:39:00,29.2,23.5,30.22,North,355,0.0,0.0,79,0.00,,,0.00,0.00,VWS V14.01,2013-02-06 12:39:00,
2013-02-06 07:41:00,29.2,23.8,30.22,North,355,0.0,0.0,80,0.00,,,0.00,0.00,VWS V14.01,2013-02-06 12:41:00,
2013-02-06 07:43:00,29.1,23.7,30.22,North,355,0.0,0.0,80,0.00,,,0.00,0.00,VWS V14.01,2013-02-06 12:43:00,
2013-02-06 07:44:00,29.1,23.7,30.22,North,355,0.0,0.0,80,0.00,,,0.00,0.00,VWS V14.01,2013-02-06 12:44:00,
2013-02-06 07:46:00,29.1,23.7,30.23,North,355,0.0,0.0,80,0.00,,,0.00,0.00,VWS V14.01,2013-02-06 12:46:00,
2013-02-06 07:48:00,29.1,23.7,30.23,North,355,0.0,0.0,80,0.00,,,0.00,0.00,VWS V14.01,2013-02-06 12:48:00,
2013-02-06 07:49:00,29.1,23.7,30.23,North,355,0.0,0.0,80,0.00,,,0.00,0.00,VWS V14.01,2013-02-06 12:49:00,
2013-02-06 07:51:00,29.1,23.7,30.23,North,355,0.0,0.0,80,0.00,,,0.00,0.00,VWS V14.01,2013-02-06 12:51:00,
2013-02-06 07:53:00,29.1,23.7,30.23,North,355,0.0,0.0,80,0.00,,,0.00,0.00,VWS V14.01,2013-02-06 12:53:00,
2013-02-06 07:54:00,29.1,23.7,30.23,North,355,0.0,0.0,80,0.00,,,0.00,0.00,VWS V14.01,2013-02-06 12:54:00,
2013-02-06 07:55:00,29.1,23.7,30.23,North,355,0.0,0.0,80,0.00,,,0.00,0.00,VWS V14.01,2013-02-06 12:55:00,
2013-02-06 07:56:00,29.1,23.7,30.23,North,355,0.0,0.0,80,0.00,,,0.00,0.00,VWS V14.01,2013-02-06 12:56:00,
2013-02-06 07:58:00,29.1,23.7,30.23,North,355,0.0,0.0,80,0.00,,,0.00,0.00,VWS V14.01,2013-02-06 12:58:00,
2013-02-06 07:59:00,29.0,23.6,30.23,North,355,0.0,0.0,80,0.00,,,0.00,0.00,VWS V14.01,2013-02-06 12:59:00,
2013-02-06 08:00:00,29.0,23.6,30.23,North,355,0.0,0.0,80,0.00,,,0.00,0.00,VWS V14.01,2013-02-06 13:00:00,
2013-02-06 08:01:00,29.0,23.6,30.23,North,355,0.0,0.0,80,0.00,,,0.00,0.00,VWS V14.01,2013-02-06 13:01:00,
2013-02-06 08:03:00,29.0,23.6,30.23,North,355,0.0,0.0,80,0.00,,,0.00,0.00,VWS V14.01,2013-02-06 13:03:00,
2013-02-06 08:04:00,29.0,23.6,30.23,North,355,0.0,0.0,80,0.00,,,0.00,0.00,VWS V14.01,2013-02-06 13:04:00,
2013-02-06 08:05:00,29.0,23.6,30.23,North,355,0.0,0.0,80,0.00,,,0.00,0.00,VWS V14.01,2013-02-06 13:05:00,
2013-02-06 08:06:00,29.0,23.6,30.23,North,355,0.0,0.0,80,0.00,,,0.00,0.00,VWS V14.01,2013-02-06 13:06:00,
2013-02-06 08:09:00,29.0,23.6,30.23,North,355,0.0,0.0,80,0.00,,,0.00,0.00,VWS V14.01,2013-02-06 13:09:00,
2013-02-06 08:10:00,29.0,23.6,30.23,North,355,0.0,0.0,80,0.00,,,0.00,0.00,VWS V14.01,2013-02-06 13:10:00,
2013-02-06 08:11:00,29.0,23.6,30.23,North,355,0.0,0.0,80,0.00,,,0.00,0.00,VWS V14.01,2013-02-06 13:11:00,
2013-02-06 08:14:00,29.0,23.9,30.23,North,355,0.0,0.0,81,0.00,,,0.00,0.00,VWS V14.01,2013-02-06 13:14:00,
2013-02-06 08:15:00,29.0,23.6,30.23,North,355,0.0,0.0,80,0.00,,,0.00,0.00,VWS V14.01,2013-02-06 13:15:00,
2013-02-06 08:16:00,29.0,23.6,30.24,North,355,0.0,0.0,80,0.00,,,0.00,0.00,VWS V14.01,2013-02-06 13:16:00,
2013-02-06 08:19:00,29.0,23.6,30.24,North,355,0.0,0.0,80,0.00,,,0.00,0.00,VWS V14.01,2013-02-06 13:19:00,
2013-02-06 08:20:00,29.0,23.6,30.23,North,355,0.0,0.0,80,0.00,,,0.00,0.00,VWS V14.01,2013-02-06 13:20:00,
2013-02-06 08:21:00,29.0,23.6,30.24,North,355,0.0,0.0,80,0.00,,,0.00,0.00,VWS V14.01,2013-02-06 13:21:00,
2013-02-06 08:24:00,29.0,23.6,30.24,North,355,0.0,0.0,80,0.00,,,0.00,0.00,VWS V14.01,2013-02-06 13:24:00,
2013-02-06 08:25:00,29.0,23.6,30.24,North,355,0.0,0.0,80,0.00,,,0.00,0.00,VWS V14.01,2013-02-06 13:25:00,
2013-02-06 08:27:00,29.0,23.6,30.24,North,355,0.0,0.0,80,0.00,,,0.00,0.00,VWS V14.01,2013-02-06 13:27:00,
2013-02-06 08:29:00,29.0,23.3,30.24,North,355,0.0,0.0,79,0.00,,,0.00,0.00,VWS V14.01,2013-02-06 13:29:00,
2013-02-06 08:30:00,29.0,23.3,30.24,North,355,0.0,0.0,79,0.00,,,0.00,0.00,VWS V14.01,2013-02-06 13:30:00,
2013-02-06 08:32:00,29.0,23.6,30.24,North,355,0.0,0.0,80,0.00,,,0.00,0.00,VWS V14.01,2013-02-06 13:32:00,
2013-02-06 08:34:00,29.0,23.6,30.24,North,355,0.0,0.0,80,0.00,,,0.00,0.00,VWS V14.01,2013-02-06 13:34:00,
2013-02-06 08:35:00,29.0,23.6,30.24,North,355,0.0,0.0,80,0.00,,,0.00,0.00,VWS V14.01,2013-02-06 13:35:00,
2013-02-06 08:37:00,29.1,23.7,30.24,North,355,0.0,0.0,80,0.00,,,0.00,0.00,VWS V14.01,2013-02-06 13:37:00,
2013-02-06 08:39:00,29.1,23.4,30.24,North,355,0.0,0.0,79,0.00,,,0.00,0.00,VWS V14.01,2013-02-06 13:39:00,
2013-02-06 08:40:00,29.2,23.8,30.24,North,355,0.0,0.0,80,0.00,,,0.00,0.00,VWS V14.01,2013-02-06 13:40:00,
2013-02-06 08:42:00,29.2,23.8,30.24,North,355,0.0,0.0,80,0.00,,,0.00,0.00,VWS V14.01,2013-02-06 13:42:00,
2013-02-06 08:44:00,29.2,23.8,30.24,North,355,0.0,0.0,80,0.00,,,0.00,0.00,VWS V14.01,2013-02-06 13:44:00,
2013-02-06 08:45:00,29.3,23.6,30.24,North,355,0.0,0.0,79,0.00,,,0.00,0.00,VWS V14.01,2013-02-06 13:45:00,
2013-02-06 08:47:00,29.3,23.6,30.23,North,355,0.0,0.0,79,0.00,,,0.00,0.00,VWS V14.01,2013-02-06 13:47:00,
2013-02-06 08:49:00,29.3,23.6,30.23,North,355,0.0,0.0,79,0.00,,,0.00,0.00,VWS V14.01,2013-02-06 13:49:00,
2013-02-06 08:50:00,29.3,23.6,30.23,North,355,0.0,0.0,79,0.00,,,0.00,0.00,VWS V14.01,2013-02-06 13:50:00,
2013-02-06 08:52:00,29.4,23.7,30.23,North,355,0.0,0.0,79,0.00,,,0.00,0.00,VWS V14.01,2013-02-06 13:52:00,
2013-02-06 08:54:00,29.4,23.7,30.23,North,355,0.0,0.0,79,0.00,,,0.00,0.00,VWS V14.01,2013-02-06 13:54:00,
2013-02-06 08:55:00,29.4,23.7,30.23,North,355,0.0,0.0,79,0.00,,,0.00,0.00,VWS V14.01,2013-02-06 13:55:00,
2013-02-06 08:57:00,29.5,23.5,30.23,North,355,0.0,0.0,78,0.00,,,0.00,0.00,VWS V14.01,2013-02-06 13:57:00,
2013-02-06 08:59:00,29.6,23.6,30.23,North,355,0.0,0.0,78,0.00,,,0.00,0.00,VWS V14.01,2013-02-06 13:59:00,
2013-02-06 09:00:00,29.6,23.6,30.23,North,355,0.0,0.0,78,0.00,,,0.00,0.00,VWS V14.01,2013-02-06 14:00:00,
2013-02-06 09:02:00,29.6,23.6,30.23,North,355,0.0,0.0,78,0.00,,,0.00,0.00,VWS V14.01,2013-02-06 14:02:00,
2013-02-06 09:05:00,29.7,23.7,30.23,North,355,0.0,0.0,78,0.00,,,0.00,0.00,VWS V14.01,2013-02-06 14:05:00,
2013-02-06 09:07:00,29.8,24.1,30.23,North,355,0.0,0.0,79,0.00,,,0.00,0.00,VWS V14.01,2013-02-06 14:07:00,
2013-02-06 09:10:00,29.9,23.9,30.24,North,355,0.0,0.0,78,0.00,,,0.00,0.00,VWS V14.01,2013-02-06 14:10:00,
2013-02-06 09:12:00,30.0,24.0,30.24,North,355,0.0,0.0,78,0.00,,,0.00,0.00,VWS V14.01,2013-02-06 14:12:00,
2013-02-06 09:15:00,30.1,23.8,30.24,North,355,0.0,0.0,77,0.00,,,0.00,0.00,VWS V14.01,2013-02-06 14:15:00,
2013-02-06 09:16:00,30.1,23.8,30.24,North,355,0.0,1.0,77,0.00,,,0.00,0.00,VWS V14.01,2013-02-06 14:16:00,
2013-02-06 09:17:00,30.2,23.9,30.24,North,355,0.0,0.0,77,0.00,,,0.00,0.00,VWS V14.01,2013-02-06 14:17:00,
2013-02-06 09:20:00,30.3,24.0,30.24,North,355,0.0,0.0,77,0.00,,,0.00,0.00,VWS V14.01,2013-02-06 14:20:00,
2013-02-06 09:21:00,30.3,24.0,30.24,North,355,0.0,0.0,77,0.00,,,0.00,0.00,VWS V14.01,2013-02-06 14:21:00,
2013-02-06 09:22:00,30.3,23.7,30.24,North,355,0.0,0.0,76,0.00,,,0.00,0.00,VWS V14.01,2013-02-06 14:22:00,
2013-02-06 09:25:00,30.4,23.8,30.24,North,355,0.0,0.0,76,0.00,,,0.00,0.00,VWS V14.01,2013-02-06 14:25:00,
2013-02-06 09:26:00,30.5,23.9,30.24,North,355,0.0,0.0,76,0.00,,,0.00,0.00,VWS V14.01,2013-02-06 14:26:00,
2013-02-06 09:27:00,30.5,23.9,30.24,North,355,0.0,0.0,76,0.00,,,0.00,0.00,VWS V14.01,2013-02-06 14:27:00,
2013-02-06 09:30:00,30.6,24.0,30.24,North,355,0.0,0.0,76,0.00,,,0.00,0.00,VWS V14.01,2013-02-06 14:30:00,
2013-02-06 09:31:00,30.6,24.0,30.24,North,355,0.0,0.0,76,0.00,,,0.00,0.00,VWS V14.01,2013-02-06 14:31:00,
2013-02-06 09:32:00,30.7,24.0,30.24,North,355,0.0,0.0,76,0.00,,,0.00,0.00,VWS V14.01,2013-02-06 14:32:00,
2013-02-06 09:35:00,30.8,24.1,30.24,North,355,0.0,0.0,76,0.00,,,0.00,0.00,VWS V14.01,2013-02-06 14:35:00,
2013-02-06 09:36:00,30.8,23.8,30.24,North,355,0.0,0.0,75,0.00,,,0.00,0.00,VWS V14.01,2013-02-06 14:36:00,
2013-02-06 09:37:00,30.8,23.8,30.24,North,355,0.0,1.0,75,0.00,,,0.00,0.00,VWS V14.01,2013-02-06 14:37:00,
2013-02-06 09:40:00,30.8,23.8,30.24,North,355,0.0,0.0,75,0.00,,,0.00,0.00,VWS V14.01,2013-02-06 14:40:00,
2013-02-06 09:41:00,30.8,23.8,30.24,North,355,0.0,0.0,75,0.00,,,0.00,0.00,VWS V14.01,2013-02-06 14:41:00,
2013-02-06 09:42:00,30.8,23.8,30.24,North,355,0.0,0.0,75,0.00,,,0.00,0.00,VWS V14.01,2013-02-06 14:42:00,
2013-02-06 09:45:00,30.9,23.9,30.24,North,355,0.0,0.0,75,0.00,,,0.00,0.00,VWS V14.01,2013-02-06 14:45:00,
2013-02-06 09:46:00,30.9,23.9,30.24,North,355,0.0,1.0,75,0.00,,,0.00,0.00,VWS V14.01,2013-02-06 14:46:00,
2013-02-06 09:47:00,30.9,23.6,30.24,North,355,0.0,0.0,74,0.00,,,0.00,0.00,VWS V14.01,2013-02-06 14:47:00,
2013-02-06 09:50:00,30.9,23.6,30.24,North,355,0.0,0.0,74,0.00,,,0.00,0.00,VWS V14.01,2013-02-06 14:50:00,
2013-02-06 09:51:00,31.0,23.7,30.24,North,355,0.0,0.0,74,0.00,,,0.00,0.00,VWS V14.01,2013-02-06 14:51:00,
2013-02-06 09:52:00,30.9,23.9,30.24,North,355,0.0,0.0,75,0.00,,,0.00,0.00,VWS V14.01,2013-02-06 14:52:00,
2013-02-06 09:55:00,30.9,23.9,30.24,North,355,0.0,0.0,75,0.00,,,0.00,0.00,VWS V14.01,2013-02-06 14:55:00,
2013-02-06 09:56:00,30.9,23.6,30.24,North,355,0.0,0.0,74,0.00,,,0.00,0.00,VWS V14.01,2013-02-06 14:56:00,
2013-02-06 09:57:00,30.9,23.6,30.24,North,355,0.0,0.0,74,0.00,,,0.00,0.00,VWS V14.01,2013-02-06 14:57:00,
2013-02-06 10:00:00,31.0,23.7,30.24,North,355,0.0,0.0,74,0.00,,,0.00,0.00,VWS V14.01,2013-02-06 15:00:00,
2013-02-06 10:01:00,31.0,23.7,30.24,North,355,0.0,0.0,74,0.00,,,0.00,0.00,VWS V14.01,2013-02-06 15:01:00,
2013-02-06 10:02:00,31.0,23.7,30.24,North,355,0.0,0.0,74,0.00,,,0.00,0.00,VWS V14.01,2013-02-06 15:02:00,
2013-02-06 10:05:00,31.1,23.8,30.24,North,355,0.0,0.0,74,0.00,,,0.00,0.00,VWS V14.01,2013-02-06 15:05:00,
2013-02-06 10:06:00,31.1,23.8,30.24,North,355,0.0,0.0,74,0.00,,,0.00,0.00,VWS V14.01,2013-02-06 15:06:00,
2013-02-06 10:07:00,31.2,23.9,30.24,North,355,0.0,0.0,74,0.00,,,0.00,0.00,VWS V14.01,2013-02-06 15:07:00,
2013-02-06 10:10:00,31.1,23.5,30.24,North,355,0.0,0.0,73,0.00,,,0.00,0.00,VWS V14.01,2013-02-06 15:10:00,
2013-02-06 10:11:00,31.2,23.6,30.24,North,355,0.0,0.0,73,0.00,,,0.00,0.00,VWS V14.01,2013-02-06 15:11:00,
2013-02-06 10:12:00,31.2,23.6,30.24,North,355,0.0,0.0,73,0.00,,,0.00,0.00,VWS V14.01,2013-02-06 15:12:00,
2013-02-06 10:15:00,31.3,23.3,30.24,North,355,0.0,0.0,72,0.00,,,0.00,0.00,VWS V14.01,2013-02-06 15:15:00,
2013-02-06 10:16:00,31.3,23.3,30.24,North,355,0.0,0.0,72,0.00,,,0.00,0.00,VWS V14.01,2013-02-06 15:16:00,
2013-02-06 10:17:00,31.4,23.4,30.24,North,355,0.0,0.0,72,0.00,,,0.00,0.00,VWS V14.01,2013-02-06 15:17:00,
2013-02-06 10:20:00,31.5,23.2,30.24,North,355,0.0,0.0,71,0.00,,,0.00,0.00,VWS V14.01,2013-02-06 15:20:00,
2013-02-06 10:21:00,31.6,23.3,30.24,North,355,0.0,0.0,71,0.00,,,0.00,0.00,VWS V14.01,2013-02-06 15:21:00,
2013-02-06 10:22:00,31.7,23.4,30.24,North,355,0.0,0.0,71,0.00,,,0.00,0.00,VWS V14.01,2013-02-06 15:22:00,
2013-02-06 10:25:00,32.0,23.3,30.25,North,355,0.0,1.0,70,0.00,,,0.00,0.00,VWS V14.01,2013-02-06 15:25:00,
2013-02-06 10:26:00,32.1,23.4,30.25,North,355,0.0,1.0,70,0.00,,,0.00,0.00,VWS V14.01,2013-02-06 15:26:00,
2013-02-06 10:28:00,32.3,23.6,30.25,North,355,0.0,0.0,70,0.00,,,0.00,0.00,VWS V14.01,2013-02-06 15:28:00,
2013-02-06 10:30:00,32.4,23.4,30.25,North,355,0.0,0.0,69,0.00,,,0.00,0.00,VWS V14.01,2013-02-06 15:30:00,
2013-02-06 10:31:00,32.4,23.4,30.25,North,355,0.0,0.0,69,0.00,,,0.00,0.00,VWS V14.01,2013-02-06 15:31:00,
2013-02-06 10:33:00,32.5,23.1,30.25,North,355,1.0,1.0,68,0.00,,,0.00,0.00,VWS V14.01,2013-02-06 15:33:00,
2013-02-06 10:35:00,32.7,23.3,30.25,North,355,0.0,1.0,68,0.00,,,0.00,0.00,VWS V14.01,2013-02-06 15:35:00,
2013-02-06 10:36:00,32.8,23.4,30.25,North,355,0.0,1.0,68,0.00,,,0.00,0.00,VWS V14.01,2013-02-06 15:36:00,
2013-02-06 10:38:00,33.0,24.0,30.25,North,355,1.0,1.0,69,0.00,,,0.00,0.00,VWS V14.01,2013-02-06 15:38:00,
2013-02-06 10:40:00,33.0,23.2,30.25,North,355,3.0,3.0,67,0.00,,,0.00,0.00,VWS V14.01,2013-02-06 15:40:00,
2013-02-06 10:41:00,33.0,22.9,30.25,North,351,2.0,3.0,66,0.00,,,0.00,0.00,VWS V14.01,2013-02-06 15:41:00,
2013-02-06 10:42:00,33.0,22.9,30.25,North,351,0.0,2.0,66,0.00,,,0.00,0.00,VWS V14.01,2013-02-06 15:42:00,
2013-02-06 10:43:00,33.0,23.2,30.25,North,351,0.0,0.0,67,0.00,,,0.00,0.00,VWS V14.01,2013-02-06 15:43:00,
2013-02-06 10:45:00,33.2,23.8,30.25,North,351,0.0,1.0,68,0.00,,,0.00,0.00,VWS V14.01,2013-02-06 15:45:00,
2013-02-06 10:46:00,33.2,23.5,30.26,North,351,0.0,0.0,67,0.00,,,0.00,0.00,VWS V14.01,2013-02-06 15:46:00,
2013-02-06 10:47:00,33.3,23.5,30.26,North,351,0.0,0.0,67,0.00,,,0.00,0.00,VWS V14.01,2013-02-06 15:47:00,
2013-02-06 10:48:00,33.5,23.7,30.26,North,351,0.0,0.0,67,0.00,,,0.00,0.00,VWS V14.01,2013-02-06 15:48:00,
2013-02-06 10:50:00,33.8,24.0,30.26,North,351,0.0,0.0,67,0.00,,,0.00,0.00,VWS V14.01,2013-02-06 15:50:00,
2013-02-06 10:51:00,33.9,24.1,30.26,NNW,346,2.0,2.0,67,0.00,,,0.00,0.00,VWS V14.01,2013-02-06 15:51:00,
2013-02-06 10:52:00,34.0,23.9,30.26,NNW,346,1.0,1.0,66,0.00,,,0.00,0.00,VWS V14.01,2013-02-06 15:52:00,
2013-02-06 10:53:00,34.1,24.0,30.26,NNW,338,0.0,2.0,66,0.00,,,0.00,0.00,VWS V14.01,2013-02-06 15:53:00,
2013-02-06 10:55:00,34.2,24.0,30.26,NNW,338,1.0,3.0,66,0.00,,,0.00,0.00,VWS V14.01,2013-02-06 15:55:00,
2013-02-06 10:56:00,34.2,24.0,30.26,NNW,338,0.0,1.0,66,0.00,,,0.00,0.00,VWS V14.01,2013-02-06 15:56:00,
2013-02-06 10:57:00,34.2,23.7,30.26,NNW,338,1.0,1.0,65,0.00,,,0.00,0.00,VWS V14.01,2013-02-06 15:57:00,
2013-02-06 10:58:00,34.2,23.3,30.26,NNW,338,1.0,2.0,64,0.00,,,0.00,0.00,VWS V14.01,2013-02-06 15:58:00,
2013-02-06 11:00:00,33.9,23.4,30.26,NW,322,0.0,0.0,65,0.00,,,0.00,0.00,VWS V14.01,2013-02-06 16:00:00,
2013-02-06 11:01:00,33.9,23.4,30.26,NW,322,0.0,1.0,65,0.00,,,0.00,0.00,VWS V14.01,2013-02-06 16:01:00,
2013-02-06 11:02:00,33.9,23.8,30.26,NW,322,0.0,0.0,66,0.00,,,0.00,0.00,VWS V14.01,2013-02-06 16:02:00,
2013-02-06 11:03:00,33.9,23.8,30.26,NW,322,2.0,3.0,66,0.00,,,0.00,0.00,VWS V14.01,2013-02-06 16:03:00,
2013-02-06 11:06:00,33.9,23.4,30.26,NW,311,0.0,3.0,65,0.00,,,0.00,0.00,VWS V14.01,2013-02-06 16:06:00,
2013-02-06 11:07:00,33.9,23.4,30.27,West,279,2.0,3.0,65,0.00,,,0.00,0.00,VWS V14.01,2013-02-06 16:07:00,
2013-02-06 11:08:00,33.8,23.3,30.27,West,279,0.0,0.0,65,0.00,,,0.00,0.00,VWS V14.01,2013-02-06 16:08:00,
2013-02-06 11:11:00,33.8,23.3,30.27,West,279,0.0,0.0,65,0.00,,,0.00,0.00,VWS V14.01,2013-02-06 16:11:00,
2013-02-06 11:12:00,33.9,23.4,30.27,West,279,0.0,0.0,65,0.00,,,0.00,0.00,VWS V14.01,2013-02-06 16:12:00,
2013-02-06 11:13:00,33.9,23.4,30.27,West,279,0.0,0.0,65,0.00,,,0.00,0.00,VWS V14.01,2013-02-06 16:13:00,
2013-02-06 11:16:00,33.9,23.4,30.27,West,279,0.0,1.0,65,0.00,,,0.00,0.00,VWS V14.01,2013-02-06 16:16:00,
2013-02-06 11:17:00,34.1,23.6,30.27,West,279,0.0,0.0,65,0.00,,,0.00,0.00,VWS V14.01,2013-02-06 16:17:00,
2013-02-06 11:18:00,34.2,23.7,30.27,West,279,0.0,0.0,65,0.00,,,0.00,0.00,VWS V14.01,2013-02-06 16:18:00,
2013-02-06 11:21:00,34.4,23.9,30.27,West,279,1.0,2.0,65,0.00,,,0.00,0.00,VWS V14.01,2013-02-06 16:21:00,
2013-02-06 11:22:00,34.5,24.0,30.27,WSW,254,3.0,5.0,65,0.00,,,0.00,0.00,VWS V14.01,2013-02-06 16:22:00,
2013-02-06 11:23:00,34.6,23.7,30.27,WSW,253,3.0,3.0,64,0.00,,,0.00,0.00,VWS V14.01,2013-02-06 16:23:00,
2013-02-06 11:26:00,34.3,23.4,30.27,WSW,250,1.0,3.0,64,0.00,,,0.00,0.00,VWS V14.01,2013-02-06 16:26:00,
2013-02-06 11:27:00,34.2,23.3,30.27,WSW,250,2.0,4.0,64,0.00,,,0.00,0.00,VWS V14.01,2013-02-06 16:27:00,
2013-02-06 11:28:00,34.1,23.2,30.27,WSW,250,1.0,4.0,64,0.00,,,0.00,0.00,VWS V14.01,2013-02-06 16:28:00,
2013-02-06 11:31:00,33.8,23.3,30.27,WSW,250,0.0,0.0,65,0.00,,,0.00,0.00,VWS V14.01,2013-02-06 16:31:00,
2013-02-06 11:32:00,33.7,23.2,30.27,WSW,250,0.0,0.0,65,0.00,,,0.00,0.00,VWS V14.01,2013-02-06 16:32:00,
2013-02-06 11:33:00,33.7,23.6,30.27,WSW,250,0.0,0.0,66,0.00,,,0.00,0.00,VWS V14.01,2013-02-06 16:33:00,
2013-02-06 11:36:00,33.8,23.7,30.27,WSW,250,0.0,1.0,66,0.00,,,0.00,0.00,VWS V14.01,2013-02-06 16:36:00,
2013-02-06 11:37:00,34.1,24.0,30.27,WSW,250,0.0,1.0,66,0.00,,,0.00,0.00,VWS V14.01,2013-02-06 16:37:00,
2013-02-06 11:38:00,34.1,24.0,30.27,WSW,250,1.0,1.0,66,0.00,,,0.00,0.00,VWS V14.01,2013-02-06 16:38:00,
2013-02-06 11:41:00,34.4,23.9,30.27,WSW,250,0.0,0.0,65,0.00,,,0.00,0.00,VWS V14.01,2013-02-06 16:41:00,
2013-02-06 11:42:00,34.5,23.6,30.27,WSW,249,1.0,2.0,64,0.00,,,0.00,0.00,VWS V14.01,2013-02-06 16:42:00,
2013-02-06 11:43:00,34.5,23.6,30.27,WSW,249,0.0,0.0,64,0.00,,,0.00,0.00,VWS V14.01,2013-02-06 16:43:00,
2013-02-06 11:46:00,34.7,24.1,30.27,SW,230,3.0,3.0,65,0.00,,,0.00,0.00,VWS V14.01,2013-02-06 16:46:00,
2013-02-06 11:47:00,34.6,24.1,30.27,South,180,3.0,4.0,65,0.00,,,0.00,0.00,VWS V14.01,2013-02-06 16:47:00,
2013-02-06 11:48:00,34.6,24.1,30.27,South,179,2.0,3.0,65,0.00,,,0.00,0.00,VWS V14.01,2013-02-06 16:48:00,
2013-02-06 11:51:00,34.3,23.8,30.27,South,171,0.0,1.0,65,0.00,,,0.00,0.00,VWS V14.01,2013-02-06 16:51:00,
2013-02-06 11:53:00,34.3,23.8,30.27,South,171,0.0,2.0,65,0.00,,,0.00,0.00,VWS V14.01,2013-02-06 16:53:00,
2013-02-06 11:56:00,34.4,24.2,30.27,SSE,163,3.0,4.0,66,0.00,,,0.00,0.00,VWS V14.01,2013-02-06 16:56:00,
2013-02-06 11:58:00,34.5,24.0,30.27,SSE,157,1.0,3.0,65,0.00,,,0.00,0.00,VWS V14.01,2013-02-06 16:58:00,
2013-02-06 12:01:00,34.5,24.0,30.27,SSE,153,3.0,3.0,65,0.00,,,0.00,0.00,VWS V14.01,2013-02-06 17:01:00,
2013-02-06 12:03:00,34.5,24.0,30.27,South,171,5.0,5.0,65,0.00,,,0.00,0.00,VWS V14.01,2013-02-06 17:03:00,
2013-02-06 12:06:00,34.6,24.4,30.27,SSW,202,0.0,0.0,66,0.00,,,0.00,0.00,VWS V14.01,2013-02-06 17:06:00,
2013-02-06 12:08:00,34.7,24.5,30.27,SSW,199,3.0,4.0,66,0.00,,,0.00,0.00,VWS V14.01,2013-02-06 17:08:00,
2013-02-06 12:11:00,34.8,24.2,30.26,SSW,196,0.0,1.0,65,0.00,,,0.00,0.00,VWS V14.01,2013-02-06 17:11:00,
2013-02-06 12:13:00,34.8,24.2,30.26,South,178,1.0,4.0,65,0.00,,,0.00,0.00,VWS V14.01,2013-02-06 17:13:00,
2013-02-06 12:16:00,34.9,24.7,30.26,SSW,194,3.0,5.0,66,0.00,,,0.00,0.00,VWS V14.01,2013-02-06 17:16:00,
2013-02-06 12:18:00,34.8,24.2,30.26,SW,225,2.0,6.0,65,0.00,,,0.00,0.00,VWS V14.01,2013-02-06 17:18:00,
2013-02-06 12:21:00,34.7,24.1,30.26,SW,225,4.0,4.0,65,0.00,,,0.00,0.00,VWS V14.01,2013-02-06 17:21:00,
2013-02-06 12:23:00,34.7,23.8,30.26,SW,219,2.0,5.0,64,0.00,,,0.00,0.00,VWS V14.01,2013-02-06 17:23:00,
2013-02-06 12:26:00,34.5,23.6,30.26,SW,227,1.0,4.0,64,0.00,,,0.00,0.00,VWS V14.01,2013-02-06 17:26:00,
2013-02-06 12:28:00,34.4,23.5,30.26,SW,227,1.0,4.0,64,0.00,,,0.00,0.00,VWS V14.01,2013-02-06 17:28:00,
2013-02-06 12:31:00,34.4,24.6,30.25,SSW,198,1.0,4.0,67,0.00,,,0.00,0.00,VWS V14.01,2013-02-06 17:31:00,
2013-02-06 12:32:00,34.4,24.6,30.25,SSW,198,1.0,4.0,67,0.00,,,0.00,0.00,VWS V14.01,2013-02-06 17:32:00,
2013-02-06 12:33:00,34.4,23.9,30.25,SW,229,3.0,3.0,65,0.00,,,0.00,0.00,VWS V14.01,2013-02-06 17:33:00,
2013-02-06 12:36:00,34.6,23.7,30.25,SW,225,3.0,4.0,64,0.00,,,0.00,0.00,VWS V14.01,2013-02-06 17:36:00,
2013-02-06 12:37:00,34.6,23.7,30.25,SW,225,3.0,4.0,64,0.00,,,0.00,0.00,VWS V14.01,2013-02-06 17:37:00,
2013-02-06 12:38:00,34.6,23.7,30.25,SW,225,0.0,1.0,64,0.00,,,0.00,0.00,VWS V14.01,2013-02-06 17:38:00,
2013-02-06 12:41:00,34.8,24.2,30.25,South,184,1.0,4.0,65,0.00,,,0.00,0.00,VWS V14.01,2013-02-06 17:41:00,
2013-02-06 12:42:00,34.8,24.2,30.25,South,184,1.0,4.0,65,0.00,,,0.00,0.00,VWS V14.01,2013-02-06 17:42:00,
2013-02-06 12:43:00,34.8,23.9,30.25,South,184,0.0,0.0,64,0.00,,,0.00,0.00,VWS V14.01,2013-02-06 17:43:00,
2013-02-06 12:47:00,35.0,24.4,30.25,South,174,0.0,1.0,65,0.00,,,0.00,0.00,VWS V14.01,2013-02-06 17:47:00,
2013-02-06 12:48:00,35.1,24.9,30.25,South,172,5.0,6.0,66,0.00,,,0.00,0.00,VWS V14.01,2013-02-06 17:48:00,
2013-02-06 12:52:00,35.1,24.9,30.25,SSE,165,1.0,1.0,66,0.00,,,0.00,0.00,VWS V14.01,2013-02-06 17:52:00,
2013-02-06 12:53:00,35.1,24.5,30.25,SSE,161,1.0,2.0,65,0.00,,,0.00,0.00,VWS V14.01,2013-02-06 17:53:00,
2013-02-06 12:54:00,35.2,24.3,30.24,SSE,152,0.0,0.0,64,0.00,,,0.00,0.00,VWS V14.01,2013-02-06 17:54:00,
2013-02-06 12:57:00,35.3,24.4,30.24,ESE,119,3.0,3.0,64,0.00,,,0.00,0.00,VWS V14.01,2013-02-06 17:57:00,
2013-02-06 12:58:00,35.4,24.5,30.24,ESE,113,3.0,3.0,64,0.00,,,0.00,0.00,VWS V14.01,2013-02-06 17:58:00,
2013-02-06 12:59:00,35.4,24.5,30.25,ESE,113,1.0,2.0,64,0.00,,,0.00,0.00,VWS V14.01,2013-02-06 17:59:00,
2013-02-06 13:02:00,35.5,24.2,30.25,SE,140,6.0,6.0,63,0.00,,,0.00,0.00,VWS V14.01,2013-02-06 18:02:00,
2013-02-06 13:03:00,35.5,23.8,30.25,SSE,149,2.0,2.0,62,0.00,,,0.00,0.00,VWS V14.01,2013-02-06 18:03:00,
2013-02-06 13:04:00,35.5,23.8,30.25,SSE,149,0.0,0.0,62,0.00,,,0.00,0.00,VWS V14.01,2013-02-06 18:04:00,
2013-02-06 13:07:00,35.6,23.9,30.25,SSE,154,0.0,1.0,62,0.00,,,0.00,0.00,VWS V14.01,2013-02-06 18:07:00,
2013-02-06 13:08:00,35.7,24.0,30.25,SSW,197,3.0,4.0,62,0.00,,,0.00,0.00,VWS V14.01,2013-02-06 18:08:00,
2013-02-06 13:09:00,35.7,24.0,30.25,WSW,238,0.0,1.0,62,0.00,,,0.00,0.00,VWS V14.01,2013-02-06 18:09:00,
2013-02-06 13:12:00,35.6,23.5,30.25,WSW,238,1.0,3.0,61,0.00,,,0.00,0.00,VWS V14.01,2013-02-06 18:12:00,
2013-02-06 13:13:00,35.6,23.5,30.25,WSW,243,3.0,4.0,61,0.00,,,0.00,0.00,VWS V14.01,2013-02-06 18:13:00,
2013-02-06 13:14:00,35.6,24.3,30.25,SW,225,5.0,5.0,63,0.00,,,0.00,0.00,VWS V14.01,2013-02-06 18:14:00,
2013-02-06 13:17:00,35.7,24.7,30.25,NW,306,0.0,1.0,64,0.00,,,0.00,0.00,VWS V14.01,2013-02-06 18:17:00,
2013-02-06 13:18:00,35.7,24.7,30.25,NW,306,3.0,3.0,64,0.00,,,0.00,0.00,VWS V14.01,2013-02-06 18:18:00,
2013-02-06 13:19:00,35.7,24.4,30.25,NW,306,2.0,2.0,63,0.00,,,0.00,0.00,VWS V14.01,2013-02-06 18:19:00,
2013-02-06 13:22:00,35.7,24.0,30.25,NW,304,3.0,4.0,62,0.00,,,0.00,0.00,VWS V14.01,2013-02-06 18:22:00,
2013-02-06 13:23:00,35.6,23.9,30.25,NW,304,0.0,1.0,62,0.00,,,0.00,0.00,VWS V14.01,2013-02-06 18:23:00,
2013-02-06 13:24:00,35.7,24.4,30.25,NW,304,2.0,2.0,63,0.00,,,0.00,0.00,VWS V14.01,2013-02-06 18:24:00,
2013-02-06 13:27:00,35.8,24.5,30.25,NW,304,1.0,1.0,63,0.00,,,0.00,0.00,VWS V14.01,2013-02-06 18:27:00,
2013-02-06 13:28:00,35.9,24.9,30.25,NW,304,0.0,1.0,64,0.00,,,0.00,0.00,VWS V14.01,2013-02-06 18:28:00,
2013-02-06 13:29:00,35.9,24.5,30.25,NW,304,1.0,4.0,63,0.00,,,0.00,0.00,VWS V14.01,2013-02-06 18:29:00,
2013-02-06 13:32:00,35.9,24.9,30.24,NW,304,2.0,2.0,64,0.00,,,0.00,0.00,VWS V14.01,2013-02-06 18:32:00,
2013-02-06 13:33:00,35.9,24.9,30.24,NW,304,0.0,3.0,64,0.00,,,0.00,0.00,VWS V14.01,2013-02-06 18:33:00,
2013-02-06 13:34:00,35.9,24.5,30.24,SSW,202,6.0,6.0,63,0.00,,,0.00,0.00,VWS V14.01,2013-02-06 18:34:00,
2013-02-06 13:37:00,35.7,24.0,30.24,SSW,213,2.0,2.0,62,0.00,,,0.00,0.00,VWS V14.01,2013-02-06 18:37:00,
2013-02-06 13:38:00,35.7,24.0,30.24,SSW,213,4.0,4.0,62,0.00,,,0.00,0.00,VWS V14.01,2013-02-06 18:38:00,
2013-02-06 13:39:00,35.6,24.3,30.24,West,269,6.0,6.0,63,0.00,,,0.00,0.00,VWS V14.01,2013-02-06 18:39:00,
2013-02-06 13:42:00,35.4,23.7,30.24,West,278,0.0,0.0,62,0.00,,,0.00,0.00,VWS V14.01,2013-02-06 18:42:00,
2013-02-06 13:43:00,35.4,24.1,30.24,WNW,300,3.0,4.0,63,0.00,,,0.00,0.00,VWS V14.01,2013-02-06 18:43:00,
2013-02-06 13:44:00,35.5,24.5,30.25,West,263,3.0,7.0,64,0.00,,,0.00,0.00,VWS V14.01,2013-02-06 18:44:00,
2013-02-06 13:47:00,35.6,24.6,30.25,West,277,4.0,4.0,64,0.00,,,0.00,0.00,VWS V14.01,2013-02-06 18:47:00,
2013-02-06 13:48:00,35.6,25.0,30.25,West,277,2.0,5.0,65,0.00,,,0.00,0.00,VWS V14.01,2013-02-06 18:48:00,
2013-02-06 13:49:00,35.5,24.5,30.25,West,271,4.0,4.0,64,0.00,,,0.00,0.00,VWS V14.01,2013-02-06 18:49:00,
2013-02-06 13:52:00,35.5,24.2,30.25,WNW,283,3.0,4.0,63,0.00,,,0.00,0.00,VWS V14.01,2013-02-06 18:52:00,
2013-02-06 13:53:00,35.5,24.2,30.25,West,280,8.0,10.0,63,0.00,,,0.00,0.00,VWS V14.01,2013-02-06 18:53:00,
2013-02-06 13:54:00,35.5,24.5,30.25,WNW,286,4.0,8.0,64,0.00,,,0.00,0.00,VWS V14.01,2013-02-06 18:54:00,
2013-02-06 13:57:00,35.5,24.2,30.25,West,277,3.0,3.0,63,0.00,,,0.00,0.00,VWS V14.01,2013-02-06 18:57:00,
2013-02-06 13:58:00,35.5,24.2,30.25,West,277,3.0,3.0,63,0.00,,,0.00,0.00,VWS V14.01,2013-02-06 18:58:00,
2013-02-06 13:59:00,35.4,24.1,30.25,West,277,5.0,5.0,63,0.00,,,0.00,0.00,VWS V14.01,2013-02-06 18:59:00,
2013-02-06 14:02:00,35.4,24.5,30.25,West,259,1.0,3.0,64,0.00,,,0.00,0.00,VWS V14.01,2013-02-06 19:02:00,
2013-02-06 14:03:00,35.5,24.5,30.25,West,264,4.0,6.0,64,0.00,,,0.00,0.00,VWS V14.01,2013-02-06 19:03:00,
2013-02-06 14:04:00,35.5,24.5,30.25,West,267,3.0,6.0,64,0.00,,,0.00,0.00,VWS V14.01,2013-02-06 19:04:00,
2013-02-06 14:07:00,35.6,24.3,30.25,SW,236,4.0,5.0,63,0.00,,,0.00,0.00,VWS V14.01,2013-02-06 19:07:00,
2013-02-06 14:08:00,35.6,24.3,30.25,SW,236,4.0,4.0,63,0.00,,,0.00,0.00,VWS V14.01,2013-02-06 19:08:00,
2013-02-06 14:09:00,35.5,23.8,30.25,WSW,258,4.0,4.0,62,0.00,,,0.00,0.00,VWS V14.01,2013-02-06 19:09:00,
2013-02-06 14:10:00,35.5,23.8,30.25,West,261,3.0,4.0,62,0.00,,,0.00,0.00,VWS V14.01,2013-02-06 19:10:00,
2013-02-06 14:12:00,35.5,24.2,30.24,West,266,3.0,3.0,63,0.00,,,0.00,0.00,VWS V14.01,2013-02-06 19:12:00,
2013-02-06 14:13:00,35.5,24.2,30.24,West,265,5.0,5.0,63,0.00,,,0.00,0.00,VWS V14.01,2013-02-06 19:13:00,
2013-02-06 14:14:00,35.5,24.2,30.24,West,259,4.0,4.0,63,0.00,,,0.00,0.00,VWS V14.01,2013-02-06 19:14:00,
2013-02-06 14:15:00,35.5,24.2,30.24,West,261,2.0,6.0,63,0.00,,,0.00,0.00,VWS V14.01,2013-02-06 19:15:00,
2013-02-06 14:17:00,35.6,24.3,30.25,WNW,290,7.0,8.0,63,0.00,,,0.00,0.00,VWS V14.01,2013-02-06 19:17:00,
2013-02-06 14:18:00,35.6,24.3,30.25,WSW,252,5.0,9.0,63,0.00,,,0.00,0.00,VWS V14.01,2013-02-06 19:18:00,
2013-02-06 14:19:00,35.7,24.7,30.25,NW,304,9.0,9.0,64,0.00,,,0.00,0.00,VWS V14.01,2013-02-06 19:19:00,
2013-02-06 14:20:00,35.7,24.4,30.25,West,281,4.0,10.0,63,0.00,,,0.00,0.00,VWS V14.01,2013-02-06 19:20:00,
2013-02-06 14:22:00,35.7,24.4,30.25,WNW,282,2.0,4.0,63,0.00,,,0.00,0.00,VWS V14.01,2013-02-06 19:22:00,
2013-02-06 14:23:00,35.7,24.7,30.25,WNW,291,5.0,6.0,64,0.00,,,0.00,0.00,VWS V14.01,2013-02-06 19:23:00,
2013-02-06 14:24:00,35.8,24.8,30.25,West,263,4.0,6.0,64,0.00,,,0.00,0.00,VWS V14.01,2013-02-06 19:24:00,
2013-02-06 14:25:00,35.8,24.5,30.25,West,263,5.0,5.0,63,0.00,,,0.00,0.00,VWS V14.01,2013-02-06 19:25:00,
2013-02-06 14:27:00,35.7,24.0,30.24,West,281,4.0,6.0,62,0.00,,,0.00,0.00,VWS V14.01,2013-02-06 19:27:00,
2013-02-06 14:28:00,35.7,24.4,30.25,WSW,248,5.0,5.0,63,0.00,,,0.00,0.00,VWS V14.01,2013-02-06 19:28:00,
2013-02-06 14:29:00,35.7,24.0,30.25,WSW,253,5.0,5.0,62,0.00,,,0.00,0.00,VWS V14.01,2013-02-06 19:29:00,
2013-02-06 14:30:00,35.7,24.4,30.25,WSW,254,1.0,6.0,63,0.00,,,0.00,0.00,VWS V14.01,2013-02-06 19:30:00,
2013-02-06 14:32:00,35.6,24.6,30.25,West,259,2.0,3.0,64,0.00,,,0.00,0.00,VWS V14.01,2013-02-06 19:32:00,
2013-02-06 14:33:00,35.7,25.1,30.25,West,267,4.0,5.0,65,0.00,,,0.00,0.00,VWS V14.01,2013-02-06 19:33:00,
2013-02-06 14:34:00,35.7,24.7,30.25,West,263,5.0,6.0,64,0.00,,,0.00,0.00,VWS V14.01,2013-02-06 19:34:00,
2013-02-06 14:35:00,35.7,24.7,30.25,West,264,1.0,6.0,64,0.00,,,0.00,0.00,VWS V14.01,2013-02-06 19:35:00,
2013-02-06 14:37:00,35.8,24.8,30.24,West,266,0.0,2.0,64,0.00,,,0.00,0.00,VWS V14.01,2013-02-06 19:37:00,
2013-02-06 14:38:00,35.8,24.8,30.24,West,266,2.0,2.0,64,0.00,,,0.00,0.00,VWS V14.01,2013-02-06 19:38:00,
2013-02-06 14:39:00,35.9,24.9,30.24,WSW,253,4.0,4.0,64,0.00,,,0.00,0.00,VWS V14.01,2013-02-06 19:39:00,
2013-02-06 14:40:00,35.8,24.5,30.24,SW,231,1.0,4.0,63,0.00,,,0.00,0.00,VWS V14.01,2013-02-06 19:40:00,
2013-02-06 14:42:00,35.9,24.9,30.23,SSW,211,5.0,8.0,64,0.00,,,0.00,0.00,VWS V14.01,2013-02-06 19:42:00,
2013-02-06 14:43:00,35.8,24.8,30.23,SW,219,2.0,3.0,64,0.00,,,0.00,0.00,VWS V14.01,2013-02-06 19:43:00,
2013-02-06 14:44:00,35.8,24.8,30.23,SW,226,4.0,4.0,64,0.00,,,0.00,0.00,VWS V14.01,2013-02-06 19:44:00,
2013-02-06 14:45:00,35.8,24.8,30.24,SW,224,3.0,5.0,64,0.00,,,0.00,0.00,VWS V14.01,2013-02-06 19:45:00,
2013-02-06 14:47:00,35.8,25.2,30.23,WSW,246,3.0,5.0,65,0.00,,,0.00,0.00,VWS V14.01,2013-02-06 19:47:00,
2013-02-06 14:48:00,35.9,24.9,30.23,WSW,241,4.0,5.0,64,0.00,,,0.00,0.00,VWS V14.01,2013-02-06 19:48:00,
2013-02-06 14:49:00,35.9,24.9,30.24,WSW,251,4.0,7.0,64,0.00,,,0.00,0.00,VWS V14.01,2013-02-06 19:49:00,
2013-02-06 14:50:00,35.9,24.9,30.24,SW,231,5.0,7.0,64,0.00,,,0.00,0.00,VWS V14.01,2013-02-06 19:50:00,
2013-02-06 14:52:00,36.1,25.5,30.24,West,274,1.0,4.0,65,0.00,,,0.00,0.00,VWS V14.01,2013-02-06 19:52:00,
2013-02-06 14:53:00,36.1,25.1,30.24,West,273,2.0,2.0,64,0.00,,,0.00,0.00,VWS V14.01,2013-02-06 19:53:00,
2013-02-06 14:54:00,36.1,24.7,30.24,West,273,2.0,2.0,63,0.00,,,0.00,0.00,VWS V14.01,2013-02-06 19:54:00,
2013-02-06 14:55:00,36.1,25.1,30.23,West,274,1.0,1.0,64,0.00,,,0.00,0.00,VWS V14.01,2013-02-06 19:55:00,
2013-02-06 14:57:00,36.3,24.5,30.24,West,273,1.0,1.0,62,0.00,,,0.00,0.00,VWS V14.01,2013-02-06 19:57:00,
2013-02-06 14:58:00,36.4,25.0,30.24,West,273,0.0,0.0,63,0.00,,,0.00,0.00,VWS V14.01,2013-02-06 19:58:00,
2013-02-06 14:59:00,36.4,24.6,30.24,West,273,0.0,0.0,62,0.00,,,0.00,0.00,VWS V14.01,2013-02-06 19:59:00,
2013-02-06 15:00:00,36.5,25.1,30.24,West,273,0.0,1.0,63,0.00,,,0.00,0.00,VWS V14.01,2013-02-06 20:00:00,
2013-02-06 15:03:00,36.9,25.5,30.24,West,279,2.0,5.0,63,0.00,,,0.00,0.00,VWS V14.01,2013-02-06 20:03:00,
2013-02-06 15:04:00,37.0,25.2,30.24,West,263,3.0,5.0,62,0.00,,,0.00,0.00,VWS V14.01,2013-02-06 20:04:00,
2013-02-06 15:05:00,37.0,24.8,30.23,West,263,1.0,1.0,61,0.00,,,0.00,0.00,VWS V14.01,2013-02-06 20:05:00,
2013-02-06 15:08:00,36.8,24.6,30.24,West,264,3.0,5.0,61,0.00,,,0.00,0.00,VWS V14.01,2013-02-06 20:08:00,
2013-02-06 15:10:00,36.6,24.4,30.24,WSW,242,0.0,3.0,61,0.00,,,0.00,0.00,VWS V14.01,2013-02-06 20:10:00,
2013-02-06 15:13:00,36.5,24.7,30.24,WSW,242,1.0,3.0,62,0.00,,,0.00,0.00,VWS V14.01,2013-02-06 20:13:00,
2013-02-06 15:15:00,36.6,25.2,30.24,WSW,242,0.0,4.0,63,0.00,,,0.00,0.00,VWS V14.01,2013-02-06 20:15:00,
2013-02-06 15:18:00,36.7,24.9,30.24,WSW,240,2.0,4.0,62,0.00,,,0.00,0.00,VWS V14.01,2013-02-06 20:18:00,
2013-02-06 15:20:00,36.7,24.9,30.24,WSW,258,2.0,5.0,62,0.00,,,0.00,0.00,VWS V14.01,2013-02-06 20:20:00,
2013-02-06 15:23:00,36.6,24.8,30.24,WSW,258,0.0,1.0,62,0.00,,,0.00,0.00,VWS V14.01,2013-02-06 20:23:00,
2013-02-06 15:25:00,36.6,24.8,30.24,WSW,257,1.0,1.0,62,0.00,,,0.00,0.00,VWS V14.01,2013-02-06 20:25:00,
2013-02-06 15:28:00,36.9,25.5,30.24,WSW,257,1.0,2.0,63,0.00,,,0.00,0.00,VWS V14.01,2013-02-06 20:28:00,
2013-02-06 15:30:00,37.0,25.6,30.24,WSW,240,2.0,4.0,63,0.00,,,0.00,0.00,VWS V14.01,2013-02-06 20:30:00,
2013-02-06 15:33:00,37.0,25.6,30.24,SW,219,3.0,3.0,63,0.00,,,0.00,0.00,VWS V14.01,2013-02-06 20:33:00,
2013-02-06 15:35:00,37.1,25.7,30.24,SW,236,1.0,4.0,63,0.00,,,0.00,0.00,VWS V14.01,2013-02-06 20:35:00,
2013-02-06 15:38:00,36.9,25.1,30.24,SW,229,4.0,6.0,62,0.00,,,0.00,0.00,VWS V14.01,2013-02-06 20:38:00,
2013-02-06 15:40:00,36.7,25.3,30.24,SW,230,0.0,0.0,63,0.00,,,0.00,0.00,VWS V14.01,2013-02-06 20:40:00,
2013-02-06 15:43:00,36.8,25.8,30.24,SSW,209,2.0,4.0,64,0.00,,,0.00,0.00,VWS V14.01,2013-02-06 20:43:00,
2013-02-06 15:45:00,36.8,25.4,30.24,SSW,210,0.0,2.0,63,0.00,,,0.00,0.00,VWS V14.01,2013-02-06 20:45:00,
2013-02-06 15:48:00,36.8,25.8,30.24,SW,225,3.0,3.0,64,0.00,,,0.00,0.00,VWS V14.01,2013-02-06 20:48:00,
2013-02-06 15:50:00,36.9,25.9,30.24,WSW,242,3.0,3.0,64,0.00,,,0.00,0.00,VWS V14.01,2013-02-06 20:50:00,
2013-02-06 15:53:00,37.3,26.3,30.24,West,266,1.0,1.0,64,0.00,,,0.00,0.00,VWS V14.01,2013-02-06 20:53:00,
2013-02-06 15:55:00,37.4,26.0,30.25,West,267,2.0,4.0,63,0.00,,,0.00,0.00,VWS V14.01,2013-02-06 20:55:00,
2013-02-06 15:58:00,37.4,26.0,30.25,WNW,292,3.0,3.0,63,0.00,,,0.00,0.00,VWS V14.01,2013-02-06 20:58:00,
2013-02-06 15:59:00,37.4,25.6,30.25,WNW,292,0.0,3.0,62,0.00,,,0.00,0.00,VWS V14.01,2013-02-06 20:59:00,
2013-02-06 16:00:00,37.3,25.9,30.25,WNW,292,2.0,3.0,63,0.00,,,0.00,0.00,VWS V14.01,2013-02-06 21:00:00,
2013-02-06 16:03:00,37.4,26.0,30.25,WSW,248,3.0,3.0,63,0.00,,,0.00,0.00,VWS V14.01,2013-02-06 21:03:00,
2013-02-06 16:04:00,37.4,26.0,30.25,WSW,252,3.0,3.0,63,0.00,,,0.00,0.00,VWS V14.01,2013-02-06 21:04:00,
2013-02-06 16:05:00,37.5,26.1,30.25,West,266,3.0,4.0,63,0.00,,,0.00,0.00,VWS V14.01,2013-02-06 21:05:00,
2013-02-06 16:08:00,37.5,26.1,30.25,West,268,2.0,3.0,63,0.00,,,0.00,0.00,VWS V14.01,2013-02-06 21:08:00,
2013-02-06 16:09:00,37.5,26.1,30.25,West,275,3.0,4.0,63,0.00,,,0.00,0.00,VWS V14.01,2013-02-06 21:09:00,
2013-02-06 16:10:00,37.4,25.6,30.25,West,281,2.0,2.0,62,0.00,,,0.00,0.00,VWS V14.01,2013-02-06 21:10:00,
2013-02-06 16:13:00,37.4,26.0,30.25,West,281,1.0,3.0,63,0.00,,,0.00,0.00,VWS V14.01,2013-02-06 21:13:00,
2013-02-06 16:14:00,37.4,26.0,30.25,West,279,3.0,4.0,63,0.00,,,0.00,0.00,VWS V14.01,2013-02-06 21:14:00,
2013-02-06 16:15:00,37.3,25.5,30.25,West,269,3.0,6.0,62,0.00,,,0.00,0.00,VWS V14.01,2013-02-06 21:15:00,
2013-02-06 16:18:00,37.1,25.3,30.25,West,269,3.0,6.0,62,0.00,,,0.00,0.00,VWS V14.01,2013-02-06 21:18:00,
2013-02-06 16:19:00,37.1,25.3,30.25,West,279,3.0,4.0,62,0.00,,,0.00,0.00,VWS V14.01,2013-02-06 21:19:00,
2013-02-06 16:20:00,37.1,25.3,30.25,WSW,248,2.0,4.0,62,0.00,,,0.00,0.00,VWS V14.01,2013-02-06 21:20:00,
2013-02-06 16:23:00,37.1,25.3,30.25,SW,229,1.0,4.0,62,0.00,,,0.00,0.00,VWS V14.01,2013-02-06 21:23:00,
2013-02-06 16:24:00,37.1,24.9,30.25,SW,222,3.0,3.0,61,0.00,,,0.00,0.00,VWS V14.01,2013-02-06 21:24:00,
2013-02-06 16:25:00,37.0,25.2,30.25,SW,223,2.0,3.0,62,0.00,,,0.00,0.00,VWS V14.01,2013-02-06 21:25:00,
2013-02-06 16:28:00,37.1,25.3,30.24,WSW,237,2.0,2.0,62,0.00,,,0.00,0.00,VWS V14.01,2013-02-06 21:28:00,
2013-02-06 16:29:00,37.1,25.3,30.25,West,273,6.0,6.0,62,0.00,,,0.00,0.00,VWS V14.01,2013-02-06 21:29:00,
2013-02-06 16:30:00,37.2,25.4,30.25,West,261,5.0,6.0,62,0.00,,,0.00,0.00,VWS V14.01,2013-02-06 21:30:00,
2013-02-06 16:31:00,37.2,25.4,30.25,West,261,5.0,6.0,62,0.00,,,0.00,0.00,VWS V14.01,2013-02-06 21:31:00,
2013-02-06 16:33:00,37.2,25.0,30.25,West,261,3.0,4.0,61,0.00,,,0.00,0.00,VWS V14.01,2013-02-06 21:33:00,
2013-02-06 16:34:00,37.3,25.5,30.25,West,265,2.0,4.0,62,0.00,,,0.00,0.00,VWS V14.01,2013-02-06 21:34:00,
2013-02-06 16:35:00,37.3,25.1,30.25,WSW,257,4.0,6.0,61,0.00,,,0.00,0.00,VWS V14.01,2013-02-06 21:35:00,
2013-02-06 16:36:00,37.3,25.1,30.25,WSW,257,3.0,6.0,61,0.00,,,0.00,0.00,VWS V14.01,2013-02-06 21:36:00,
2013-02-06 16:38:00,37.3,24.7,30.25,West,262,6.0,6.0,60,0.00,,,0.00,0.00,VWS V14.01,2013-02-06 21:38:00,
2013-02-06 16:39:00,37.3,24.3,30.25,West,261,3.0,3.0,59,0.00,,,0.00,0.00,VWS V14.01,2013-02-06 21:39:00,
2013-02-06 16:40:00,37.3,24.7,30.25,West,262,3.0,3.0,60,0.00,,,0.00,0.00,VWS V14.01,2013-02-06 21:40:00,
2013-02-06 16:43:00,37.2,24.6,30.25,West,260,5.0,5.0,60,0.00,,,0.00,0.00,VWS V14.01,2013-02-06 21:43:00,
2013-02-06 16:44:00,37.3,24.7,30.25,West,259,1.0,3.0,60,0.00,,,0.00,0.00,VWS V14.01,2013-02-06 21:44:00,
2013-02-06 16:45:00,37.3,25.1,30.25,West,259,1.0,5.0,61,0.00,,,0.00,0.00,VWS V14.01,2013-02-06 21:45:00,
2013-02-06 16:46:00,37.3,25.1,30.25,West,259,2.0,5.0,61,0.00,,,0.00,0.00,VWS V14.01,2013-02-06 21:46:00,
2013-02-06 16:48:00,37.2,24.6,30.25,WSW,254,2.0,4.0,60,0.00,,,0.00,0.00,VWS V14.01,2013-02-06 21:48:00,
2013-02-06 16:49:00,37.1,24.9,30.25,WSW,254,3.0,3.0,61,0.00,,,0.00,0.00,VWS V14.01,2013-02-06 21:49:00,
2013-02-06 16:51:00,37.0,24.8,30.25,West,277,6.0,6.0,61,0.00,,,0.00,0.00,VWS V14.01,2013-02-06 21:51:00,
2013-02-06 16:53:00,36.7,24.9,30.24,West,268,3.0,4.0,62,0.00,,,0.00,0.00,VWS V14.01,2013-02-06 21:53:00,
2013-02-06 16:54:00,36.7,24.9,30.24,West,268,4.0,5.0,62,0.00,,,0.00,0.00,VWS V14.01,2013-02-06 21:54:00,
2013-02-06 16:56:00,36.6,24.8,30.24,West,267,0.0,3.0,62,0.00,,,0.00,0.00,VWS V14.01,2013-02-06 21:56:00,
2013-02-06 16:58:00,36.6,25.2,30.24,WSW,246,3.0,3.0,63,0.00,,,0.00,0.00,VWS V14.01,2013-02-06 21:58:00,
2013-02-06 16:59:00,36.6,25.2,30.24,WSW,246,0.0,2.0,63,0.00,,,0.00,0.00,VWS V14.01,2013-02-06 21:59:00,
2013-02-06 17:01:00,36.6,25.2,30.24,WSW,247,4.0,6.0,63,0.00,,,0.00,0.00,VWS V14.01,2013-02-06 22:01:00,
2013-02-06 17:03:00,36.6,25.2,30.24,WSW,247,2.0,3.0,63,0.00,,,0.00,0.00,VWS V14.01,2013-02-06 22:03:00,
2013-02-06 17:04:00,36.6,25.2,30.24,WSW,248,0.0,1.0,63,0.00,,,0.00,0.00,VWS V14.01,2013-02-06 22:04:00,
2013-02-06 17:06:00,36.6,25.2,30.24,WSW,248,1.0,1.0,63,0.00,,,0.00,0.00,VWS V14.01,2013-02-06 22:06:00,
2013-02-06 17:08:00,36.6,25.2,30.24,WSW,251,0.0,4.0,63,0.00,,,0.00,0.00,VWS V14.01,2013-02-06 22:08:00,
2013-02-06 17:09:00,36.6,25.2,30.24,WSW,250,2.0,5.0,63,0.00,,,0.00,0.00,VWS V14.01,2013-02-06 22:09:00,
2013-02-06 17:11:00,36.5,25.1,30.24,WSW,245,0.0,4.0,63,0.00,,,0.00,0.00,VWS V14.01,2013-02-06 22:11:00,
2013-02-06 17:13:00,36.4,25.4,30.24,WSW,242,0.0,1.0,64,0.00,,,0.00,0.00,VWS V14.01,2013-02-06 22:13:00,
2013-02-06 17:14:00,36.3,25.3,30.24,WSW,243,3.0,4.0,64,0.00,,,0.00,0.00,VWS V14.01,2013-02-06 22:14:00,
2013-02-06 17:16:00,36.3,25.3,30.24,WSW,243,0.0,1.0,64,0.00,,,0.00,0.00,VWS V14.01,2013-02-06 22:16:00,
2013-02-06 17:18:00,36.3,25.7,30.24,WSW,243,0.0,1.0,65,0.00,,,0.00,0.00,VWS V14.01,2013-02-06 22:18:00,
2013-02-06 17:20:00,36.3,25.3,30.24,WSW,237,0.0,5.0,64,0.00,,,0.00,0.00,VWS V14.01,2013-02-06 22:20:00,
2013-02-06 17:21:00,36.2,25.2,30.24,SW,236,3.0,4.0,64,0.00,,,0.00,0.00,VWS V14.01,2013-02-06 22:21:00,
2013-02-06 17:23:00,36.1,25.9,30.24,SW,216,4.0,6.0,66,0.00,,,0.00,0.00,VWS V14.01,2013-02-06 22:23:00,
2013-02-06 17:25:00,36.1,25.5,30.24,WSW,246,6.0,6.0,65,0.00,,,0.00,0.00,VWS V14.01,2013-02-06 22:25:00,
2013-02-06 17:26:00,36.0,25.4,30.24,WSW,244,2.0,6.0,65,0.00,,,0.00,0.00,VWS V14.01,2013-02-06 22:26:00,
2013-02-06 17:28:00,35.9,25.3,30.24,WSW,244,0.0,1.0,65,0.00,,,0.00,0.00,VWS V14.01,2013-02-06 22:28:00,
2013-02-06 17:30:00,35.9,25.3,30.24,WSW,244,1.0,1.0,65,0.00,,,0.00,0.00,VWS V14.01,2013-02-06 22:30:00,
2013-02-06 17:31:00,35.8,25.6,30.24,WSW,245,1.0,4.0,66,0.00,,,0.00,0.00,VWS V14.01,2013-02-06 22:31:00,
2013-02-06 17:33:00,35.7,25.5,30.24,WSW,240,0.0,1.0,66,0.00,,,0.00,0.00,VWS V14.01,2013-02-06 22:33:00,
2013-02-06 17:35:00,35.7,25.5,30.24,WSW,240,0.0,0.0,66,0.00,,,0.00,0.00,VWS V14.01,2013-02-06 22:35:00,
2013-02-06 17:36:00,35.7,25.5,30.24,WSW,240,1.0,1.0,66,0.00,,,0.00,0.00,VWS V14.01,2013-02-06 22:36:00,
2013-02-06 17:39:00,35.6,25.4,30.24,WSW,243,0.0,3.0,66,0.00,,,0.00,0.00,VWS V14.01,2013-02-06 22:39:00,
2013-02-06 17:40:00,35.5,25.3,30.24,WSW,243,0.0,3.0,66,0.00,,,0.00,0.00,VWS V14.01,2013-02-06 22:40:00,
2013-02-06 17:41:00,35.5,25.3,30.24,WSW,243,0.0,0.0,66,0.00,,,0.00,0.00,VWS V14.01,2013-02-06 22:41:00,
2013-02-06 17:44:00,35.4,25.5,30.23,WSW,237,2.0,3.0,67,0.00,,,0.00,0.00,VWS V14.01,2013-02-06 22:44:00,
2013-02-06 17:45:00,35.4,25.5,30.23,WSW,237,3.0,3.0,67,0.00,,,0.00,0.00,VWS V14.01,2013-02-06 22:45:00,
2013-02-06 17:46:00,35.4,25.2,30.23,WSW,237,2.0,3.0,66,0.00,,,0.00,0.00,VWS V14.01,2013-02-06 22:46:00,
2013-02-06 17:49:00,35.3,25.5,30.24,WSW,237,0.0,2.0,67,0.00,,,0.00,0.00,VWS V14.01,2013-02-06 22:49:00,
2013-02-06 17:50:00,35.2,25.4,30.23,WSW,237,0.0,3.0,67,0.00,,,0.00,0.00,VWS V14.01,2013-02-06 22:50:00,
2013-02-06 17:51:00,35.2,25.4,30.23,WSW,237,0.0,1.0,67,0.00,,,0.00,0.00,VWS V14.01,2013-02-06 22:51:00,
2013-02-06 17:54:00,35.1,25.6,30.23,SW,236,3.0,3.0,68,0.00,,,0.00,0.00,VWS V14.01,2013-02-06 22:54:00,
2013-02-06 17:55:00,35.1,25.6,30.23,WSW,237,4.0,5.0,68,0.00,,,0.00,0.00,VWS V14.01,2013-02-06 22:55:00,
2013-02-06 17:56:00,35.0,25.5,30.23,WSW,237,2.0,5.0,68,0.00,,,0.00,0.00,VWS V14.01,2013-02-06 22:56:00,
2013-02-06 17:59:00,34.9,25.4,30.23,SW,235,2.0,2.0,68,0.00,,,0.00,0.00,VWS V14.01,2013-02-06 22:59:00,
2013-02-06 18:00:00,34.8,25.3,30.23,SW,235,2.0,3.0,68,0.00,,,0.00,0.00,VWS V14.01,2013-02-06 23:00:00,
2013-02-06 18:01:00,34.8,25.3,30.23,SW,232,2.0,6.0,68,0.00,,,0.00,0.00,VWS V14.01,2013-02-06 23:01:00,
2013-02-06 18:04:00,34.7,25.2,30.23,SW,234,1.0,1.0,68,0.00,,,0.00,0.00,VWS V14.01,2013-02-06 23:04:00,
2013-02-06 18:05:00,34.7,25.2,30.23,SW,234,1.0,2.0,68,0.00,,,0.00,0.00,VWS V14.01,2013-02-06 23:05:00,
2013-02-06 18:06:00,34.7,25.2,30.23,SW,234,0.0,0.0,68,0.00,,,0.00,0.00,VWS V14.01,2013-02-06 23:06:00,
2013-02-06 18:09:00,34.6,25.5,30.23,SW,233,1.0,3.0,69,0.00,,,0.00,0.00,VWS V14.01,2013-02-06 23:09:00,
2013-02-06 18:10:00,34.6,25.5,30.23,SW,233,2.0,3.0,69,0.00,,,0.00,0.00,VWS V14.01,2013-02-06 23:10:00,
2013-02-06 18:11:00,34.5,25.4,30.23,SW,233,0.0,3.0,69,0.00,,,0.00,0.00,VWS V14.01,2013-02-06 23:11:00,
2013-02-06 18:14:00,34.4,25.3,30.23,SW,234,2.0,3.0,69,0.00,,,0.00,0.00,VWS V14.01,2013-02-06 23:14:00,
2013-02-06 18:15:00,34.3,25.2,30.23,SW,234,0.0,1.0,69,0.00,,,0.00,0.00,VWS V14.01,2013-02-06 23:15:00,
2013-02-06 18:16:00,34.3,25.2,30.23,SW,234,1.0,3.0,69,0.00,,,0.00,0.00,VWS V14.01,2013-02-06 23:16:00,
2013-02-06 18:19:00,34.2,25.5,30.23,SW,234,2.0,3.0,70,0.00,,,0.00,0.00,VWS V14.01,2013-02-06 23:19:00,
2013-02-06 18:20:00,34.2,25.5,30.23,SW,234,3.0,3.0,70,0.00,,,0.00,0.00,VWS V14.01,2013-02-06 23:20:00,
2013-02-06 18:21:00,34.1,25.4,30.23,SW,234,1.0,3.0,70,0.00,,,0.00,0.00,VWS V14.01,2013-02-06 23:21:00,
2013-02-06 18:22:00,34.1,25.4,30.23,SW,234,3.0,3.0,70,0.00,,,0.00,0.00,VWS V14.01,2013-02-06 23:22:00,
2013-02-06 18:24:00,34.0,25.3,30.23,WSW,237,0.0,0.0,70,0.00,,,0.00,0.00,VWS V14.01,2013-02-06 23:24:00,
2013-02-06 18:25:00,34.0,25.3,30.23,WSW,237,1.0,2.0,70,0.00,,,0.00,0.00,VWS V14.01,2013-02-06 23:25:00,
2013-02-06 18:26:00,33.9,25.5,30.23,SW,236,2.0,2.0,71,0.00,,,0.00,0.00,VWS V14.01,2013-02-06 23:26:00,
2013-02-06 18:27:00,33.9,25.5,30.24,SW,236,2.0,3.0,71,0.00,,,0.00,0.00,VWS V14.01,2013-02-06 23:27:00,
2013-02-06 18:29:00,33.8,25.4,30.24,SW,236,0.0,2.0,71,0.00,,,0.00,0.00,VWS V14.01,2013-02-06 23:29:00,
2013-02-06 18:30:00,33.8,25.4,30.24,SW,236,3.0,3.0,71,0.00,,,0.00,0.00,VWS V14.01,2013-02-06 23:30:00,
2013-02-06 18:31:00,33.8,25.4,30.24,SW,236,0.0,3.0,71,0.00,,,0.00,0.00,VWS V14.01,2013-02-06 23:31:00,
2013-02-06 18:32:00,33.8,25.4,30.24,SW,236,2.0,3.0,71,0.00,,,0.00,0.00,VWS V14.01,2013-02-06 23:32:00,
2013-02-06 18:34:00,33.7,25.3,30.24,SW,236,0.0,2.0,71,0.00,,,0.00,0.00,VWS V14.01,2013-02-06 23:34:00,
2013-02-06 18:35:00,33.7,25.3,30.24,SW,236,0.0,0.0,71,0.00,,,0.00,0.00,VWS V14.01,2013-02-06 23:35:00,
2013-02-06 18:36:00,33.7,25.3,30.24,SW,236,2.0,2.0,71,0.00,,,0.00,0.00,VWS V14.01,2013-02-06 23:36:00,
2013-02-06 18:37:00,33.7,25.3,30.24,SW,236,0.0,2.0,71,0.00,,,0.00,0.00,VWS V14.01,2013-02-06 23:37:00,
2013-02-06 18:39:00,33.6,25.2,30.25,SW,236,0.0,0.0,71,0.00,,,0.00,0.00,VWS V14.01,2013-02-06 23:39:00,
2013-02-06 18:40:00,33.6,25.2,30.25,SW,236,0.0,0.0,71,0.00,,,0.00,0.00,VWS V14.01,2013-02-06 23:40:00,
2013-02-06 18:41:00,33.6,25.2,30.25,SW,236,0.0,0.0,71,0.00,,,0.00,0.00,VWS V14.01,2013-02-06 23:41:00,
2013-02-06 18:42:00,33.5,25.1,30.25,SW,236,0.0,0.0,71,0.00,,,0.00,0.00,VWS V14.01,2013-02-06 23:42:00,
2013-02-06 18:44:00,33.4,25.4,30.25,SW,236,0.0,2.0,72,0.00,,,0.00,0.00,VWS V14.01,2013-02-06 23:44:00,
2013-02-06 18:45:00,33.4,25.4,30.25,SW,236,0.0,0.0,72,0.00,,,0.00,0.00,VWS V14.01,2013-02-06 23:45:00,
2013-02-06 18:46:00,33.4,25.4,30.25,SW,236,0.0,1.0,72,0.00,,,0.00,0.00,VWS V14.01,2013-02-06 23:46:00,
2013-02-06 18:47:00,33.3,25.3,30.25,SW,236,3.0,3.0,72,0.00,,,0.00,0.00,VWS V14.01,2013-02-06 23:47:00,
2013-02-06 18:49:00,33.3,25.6,30.25,WSW,238,0.0,0.0,73,0.00,,,0.00,0.00,VWS V14.01,2013-02-06 23:49:00,
2013-02-06 18:50:00,33.3,25.6,30.25,WSW,238,0.0,0.0,73,0.00,,,0.00,0.00,VWS V14.01,2013-02-06 23:50:00,
2013-02-06 18:51:00,33.3,25.6,30.25,WSW,238,0.0,0.0,73,0.00,,,0.00,0.00,VWS V14.01,2013-02-06 23:51:00,
2013-02-06 18:52:00,33.2,25.5,30.25,WSW,238,0.0,0.0,73,0.00,,,0.00,0.00,VWS V14.01,2013-02-06 23:52:00,
2013-02-06 18:54:00,33.2,25.5,30.25,WSW,238,0.0,0.0,73,0.00,,,0.00,0.00,VWS V14.01,2013-02-06 23:54:00,
2013-02-06 18:55:00,33.1,25.4,30.25,WSW,238,0.0,1.0,73,0.00,,,0.00,0.00,VWS V14.01,2013-02-06 23:55:00,
2013-02-06 18:56:00,33.1,25.4,30.25,WSW,238,0.0,0.0,73,0.00,,,0.00,0.00,VWS V14.01,2013-02-06 23:56:00,
2013-02-06 18:57:00,33.0,25.3,30.25,WSW,238,0.0,0.0,73,0.00,,,0.00,0.00,VWS V14.01,2013-02-06 23:57:00,
2013-02-06 18:59:00,32.9,25.5,30.25,WSW,238,0.0,0.0,74,0.00,,,0.00,0.00,VWS V14.01,2013-02-06 23:59:00,
2013-02-06 19:00:00,32.9,25.5,30.25,WSW,238,0.0,0.0,74,0.00,,,0.00,0.00,VWS V14.01,2013-02-07 00:00:00,
2013-02-06 19:01:00,32.8,25.4,30.25,WSW,238,0.0,0.0,74,0.00,,,0.00,0.00,VWS V14.01,2013-02-07 00:01:00,
2013-02-06 19:02:00,32.8,25.4,30.25,WSW,238,0.0,0.0,74,0.00,,,0.00,0.00,VWS V14.01,2013-02-07 00:02:00,
2013-02-06 19:05:00,32.6,25.6,30.25,WSW,238,0.0,0.0,75,0.00,,,0.00,0.00,VWS V14.01,2013-02-07 00:05:00,
2013-02-06 19:06:00,32.6,25.6,30.25,WSW,238,0.0,0.0,75,0.00,,,0.00,0.00,VWS V14.01,2013-02-07 00:06:00,
2013-02-06 19:07:00,32.5,25.5,30.25,WSW,238,0.0,2.0,75,0.00,,,0.00,0.00,VWS V14.01,2013-02-07 00:07:00,
2013-02-06 19:10:00,32.5,25.8,30.25,WSW,238,0.0,2.0,76,0.00,,,0.00,0.00,VWS V14.01,2013-02-07 00:10:00,
2013-02-06 19:11:00,32.4,25.7,30.25,WSW,238,0.0,1.0,76,0.00,,,0.00,0.00,VWS V14.01,2013-02-07 00:11:00,
2013-02-06 19:12:00,32.4,25.7,30.25,WSW,237,2.0,3.0,76,0.00,,,0.00,0.00,VWS V14.01,2013-02-07 00:12:00,
2013-02-06 19:15:00,32.4,25.7,30.25,WSW,239,2.0,4.0,76,0.00,,,0.00,0.00,VWS V14.01,2013-02-07 00:15:00,
2013-02-06 19:16:00,32.4,25.7,30.25,WSW,239,2.0,2.0,76,0.00,,,0.00,0.00,VWS V14.01,2013-02-07 00:16:00,
2013-02-06 19:17:00,32.4,26.0,30.25,WSW,242,3.0,3.0,77,0.00,,,0.00,0.00,VWS V14.01,2013-02-07 00:17:00,
2013-02-06 19:20:00,32.4,26.0,30.25,WSW,241,0.0,3.0,77,0.00,,,0.00,0.00,VWS V14.01,2013-02-07 00:20:00,
2013-02-06 19:21:00,32.4,26.0,30.25,WSW,241,3.0,3.0,77,0.00,,,0.00,0.00,VWS V14.01,2013-02-07 00:21:00,
2013-02-06 19:22:00,32.4,26.0,30.25,WSW,241,4.0,4.0,77,0.00,,,0.00,0.00,VWS V14.01,2013-02-07 00:22:00,
2013-02-06 19:25:00,32.3,25.9,30.24,WSW,240,3.0,3.0,77,0.00,,,0.00,0.00,VWS V14.01,2013-02-07 00:25:00,
2013-02-06 19:26:00,32.3,25.9,30.24,SW,226,3.0,5.0,77,0.00,,,0.00,0.00,VWS V14.01,2013-02-07 00:26:00,
2013-02-06 19:27:00,32.3,25.9,30.23,SW,226,3.0,3.0,77,0.00,,,0.00,0.00,VWS V14.01,2013-02-07 00:27:00,
2013-02-06 19:30:00,32.3,25.9,30.23,SSW,213,3.0,5.0,77,0.00,,,0.00,0.00,VWS V14.01,2013-02-07 00:30:00,
2013-02-06 19:31:00,32.3,25.9,30.23,SW,218,5.0,5.0,77,0.00,,,0.00,0.00,VWS V14.01,2013-02-07 00:31:00,
2013-02-06 19:32:00,32.3,26.2,30.23,SW,217,3.0,3.0,78,0.00,,,0.00,0.00,VWS V14.01,2013-02-07 00:32:00,
2013-02-06 19:35:00,32.3,26.2,30.23,SW,232,4.0,7.0,78,0.00,,,0.00,0.00,VWS V14.01,2013-02-07 00:35:00,
2013-02-06 19:36:00,32.3,26.2,30.23,SW,232,2.0,2.0,78,0.00,,,0.00,0.00,VWS V14.01,2013-02-07 00:36:00,
2013-02-06 19:37:00,32.3,26.2,30.23,SW,226,5.0,5.0,78,0.00,,,0.00,0.00,VWS V14.01,2013-02-07 00:37:00,
2013-02-06 19:40:00,32.3,26.2,30.22,SW,223,5.0,7.0,78,0.00,,,0.00,0.00,VWS V14.01,2013-02-07 00:40:00,
2013-02-06 19:41:00,32.3,26.2,30.22,SW,222,2.0,2.0,78,0.00,,,0.00,0.00,VWS V14.01,2013-02-07 00:41:00,
2013-02-06 19:42:00,32.3,26.2,30.22,SW,219,1.0,5.0,78,0.00,,,0.00,0.00,VWS V14.01,2013-02-07 00:42:00,
2013-02-06 19:45:00,32.3,26.2,30.22,SW,221,1.0,2.0,78,0.00,,,0.00,0.00,VWS V14.01,2013-02-07 00:45:00,
2013-02-06 19:46:00,32.2,26.1,30.23,SW,221,4.0,4.0,78,0.00,,,0.00,0.00,VWS V14.01,2013-02-07 00:46:00,
2013-02-06 19:47:00,32.2,26.1,30.23,SW,224,1.0,3.0,78,0.00,,,0.00,0.00,VWS V14.01,2013-02-07 00:47:00,
2013-02-06 19:50:00,32.2,26.1,30.22,SW,225,4.0,4.0,78,0.00,,,0.00,0.00,VWS V14.01,2013-02-07 00:50:00,
2013-02-06 19:51:00,32.2,26.1,30.22,SW,231,4.0,5.0,78,0.00,,,0.00,0.00,VWS V14.01,2013-02-07 00:51:00,
2013-02-06 19:52:00,32.2,26.1,30.22,SW,231,3.0,3.0,78,0.00,,,0.00,0.00,VWS V14.01,2013-02-07 00:52:00,
2013-02-06 19:55:00,32.2,26.1,30.21,SW,225,3.0,3.0,78,0.00,,,0.00,0.00,VWS V14.01,2013-02-07 00:55:00,
2013-02-06 19:56:00,32.2,26.4,30.21,SW,226,4.0,4.0,79,0.00,,,0.00,0.00,VWS V14.01,2013-02-07 00:56:00,
2013-02-06 19:57:00,32.2,26.4,30.21,WSW,237,5.0,7.0,79,0.00,,,0.00,0.00,VWS V14.01,2013-02-07 00:57:00,
2013-02-06 20:00:00,32.2,26.4,30.22,SW,227,5.0,5.0,79,0.00,,,0.00,0.00,VWS V14.01,2013-02-07 01:00:00,
2013-02-06 20:01:00,32.1,26.3,30.22,SW,233,5.0,5.0,79,0.00,,,0.00,0.00,VWS V14.01,2013-02-07 01:01:00,
2013-02-06 20:02:00,32.1,26.3,30.22,SW,233,1.0,4.0,79,0.00,,,0.00,0.00,VWS V14.01,2013-02-07 01:02:00,
2013-02-06 20:05:00,32.1,26.3,30.22,WSW,238,2.0,4.0,79,0.00,,,0.00,0.00,VWS V14.01,2013-02-07 01:05:00,
2013-02-06 20:06:00,32.1,26.3,30.21,WSW,238,4.0,4.0,79,0.00,,,0.00,0.00,VWS V14.01,2013-02-07 01:06:00,
2013-02-06 20:07:00,32.1,26.3,30.21,WSW,238,2.0,5.0,79,0.00,,,0.00,0.00,VWS V14.01,2013-02-07 01:07:00,
2013-02-06 20:10:00,32.1,26.3,30.22,SW,233,3.0,5.0,79,0.00,,,0.00,0.00,VWS V14.01,2013-02-07 01:10:00,
2013-02-06 20:11:00,32.1,26.3,30.22,SW,233,0.0,3.0,79,0.00,,,0.00,0.00,VWS V14.01,2013-02-07 01:11:00,
2013-02-06 20:12:00,32.1,26.3,30.22,SW,233,0.0,3.0,79,0.00,,,0.00,0.00,VWS V14.01,2013-02-07 01:12:00,
2013-02-06 20:15:00,32.0,26.2,30.22,WSW,237,2.0,2.0,79,0.00,,,0.00,0.00,VWS V14.01,2013-02-07 01:15:00,
2013-02-06 20:16:00,32.0,26.2,30.22,WSW,237,2.0,2.0,79,0.00,,,0.00,0.00,VWS V14.01,2013-02-07 01:16:00,
2013-02-06 20:17:00,32.0,26.2,30.22,WSW,237,1.0,2.0,79,0.00,,,0.00,0.00,VWS V14.01,2013-02-07 01:17:00,
2013-02-06 20:20:00,32.0,26.2,30.21,SW,232,5.0,5.0,79,0.00,,,0.00,0.00,VWS V14.01,2013-02-07 01:20:00,
2013-02-06 20:21:00,32.0,26.2,30.21,SW,225,2.0,4.0,79,0.00,,,0.00,0.00,VWS V14.01,2013-02-07 01:21:00,
2013-02-06 20:22:00,32.0,26.2,30.21,SW,225,3.0,4.0,79,0.00,,,0.00,0.00,VWS V14.01,2013-02-07 01:22:00,
2013-02-06 20:26:00,32.0,26.2,30.22,SW,227,0.0,1.0,79,0.00,,,0.00,0.00,VWS V14.01,2013-02-07 01:26:00,
2013-02-06 20:27:00,32.0,26.2,30.22,SW,227,4.0,4.0,79,0.00,,,0.00,0.00,VWS V14.01,2013-02-07 01:27:00,
2013-02-06 20:31:00,31.9,26.1,30.22,SW,227,2.0,2.0,79,0.00,,,0.00,0.00,VWS V14.01,2013-02-07 01:31:00,
2013-02-06 20:32:00,31.9,26.4,30.22,SW,227,3.0,3.0,80,0.00,,,0.00,0.00,VWS V14.01,2013-02-07 01:32:00,
2013-02-06 20:36:00,31.9,26.1,30.22,SW,226,2.0,3.0,79,0.00,,,0.00,0.00,VWS V14.01,2013-02-07 01:36:00,
2013-02-06 20:37:00,31.9,26.4,30.22,SW,226,1.0,3.0,80,0.00,,,0.00,0.00,VWS V14.01,2013-02-07 01:37:00,
2013-02-06 20:38:00,31.9,26.4,30.22,SW,226,4.0,5.0,80,0.00,,,0.00,0.00,VWS V14.01,2013-02-07 01:38:00,
2013-02-06 20:41:00,31.9,26.4,30.22,SW,224,1.0,2.0,80,0.00,,,0.00,0.00,VWS V14.01,2013-02-07 01:41:00,
2013-02-06 20:42:00,31.8,26.4,30.22,SW,225,6.0,6.0,80,0.00,,,0.00,0.00,VWS V14.01,2013-02-07 01:42:00,
2013-02-06 20:43:00,31.8,26.4,30.22,SW,215,2.0,6.0,80,0.00,,,0.00,0.00,VWS V14.01,2013-02-07 01:43:00,
2013-02-06 20:46:00,31.8,26.4,30.21,SW,233,0.0,0.0,80,0.00,,,0.00,0.00,VWS V14.01,2013-02-07 01:46:00,
2013-02-06 20:47:00,31.8,26.4,30.21,SW,233,0.0,1.0,80,0.00,,,0.00,0.00,VWS V14.01,2013-02-07 01:47:00,
2013-02-06 20:48:00,31.8,26.4,30.21,SW,233,1.0,1.0,80,0.00,,,0.00,0.00,VWS V14.01,2013-02-07 01:48:00,
2013-02-06 20:51:00,31.8,26.4,30.21,SW,232,4.0,4.0,80,0.00,,,0.00,0.00,VWS V14.01,2013-02-07 01:51:00,
2013-02-06 20:52:00,31.8,26.4,30.21,SW,232,3.0,3.0,80,0.00,,,0.00,0.00,VWS V14.01,2013-02-07 01:52:00,
2013-02-06 20:53:00,31.8,26.4,30.21,SW,232,2.0,3.0,80,0.00,,,0.00,0.00,VWS V14.01,2013-02-07 01:53:00,
2013-02-06 20:56:00,31.7,26.2,30.21,SW,231,0.0,1.0,80,0.00,,,0.00,0.00,VWS V14.01,2013-02-07 01:56:00,
2013-02-06 20:57:00,31.7,26.2,30.21,SW,231,2.0,2.0,80,0.00,,,0.00,0.00,VWS V14.01,2013-02-07 01:57:00,
2013-02-06 20:58:00,31.7,26.5,30.21,SW,224,3.0,6.0,81,0.00,,,0.00,0.00,VWS V14.01,2013-02-07 01:58:00,
2013-02-06 21:01:00,31.7,26.5,30.21,SW,224,3.0,5.0,81,0.00,,,0.00,0.00,VWS V14.01,2013-02-07 02:01:00,
2013-02-06 21:02:00,31.7,26.5,30.21,SW,224,3.0,3.0,81,0.00,,,0.00,0.00,VWS V14.01,2013-02-07 02:02:00,
2013-02-06 21:03:00,31.7,26.5,30.21,SW,224,1.0,3.0,81,0.00,,,0.00,0.00,VWS V14.01,2013-02-07 02:03:00,
2013-02-06 21:06:00,31.7,26.5,30.21,SW,225,1.0,2.0,81,0.00,,,0.00,0.00,VWS V14.01,2013-02-07 02:06:00,
2013-02-06 21:07:00,31.7,26.5,30.21,SW,225,2.0,2.0,81,0.00,,,0.00,0.00,VWS V14.01,2013-02-07 02:07:00,
2013-02-06 21:08:00,31.7,26.5,30.21,SW,232,3.0,4.0,81,0.00,,,0.00,0.00,VWS V14.01,2013-02-07 02:08:00,
2013-02-06 21:11:00,31.6,26.5,30.21,SW,233,0.0,1.0,81,0.00,,,0.00,0.00,VWS V14.01,2013-02-07 02:11:00,
2013-02-06 21:12:00,31.6,26.5,30.21,WSW,243,5.0,6.0,81,0.00,,,0.00,0.00,VWS V14.01,2013-02-07 02:12:00,
2013-02-06 21:14:00,31.6,26.5,30.21,WSW,243,2.0,3.0,81,0.00,,,0.00,0.00,VWS V14.01,2013-02-07 02:14:00,
2013-02-06 21:16:00,31.6,26.5,30.21,WSW,243,0.0,0.0,81,0.00,,,0.00,0.00,VWS V14.01,2013-02-07 02:16:00,
2013-02-06 21:17:00,31.6,26.5,30.22,WSW,243,0.0,1.0,81,0.00,,,0.00,0.00,VWS V14.01,2013-02-07 02:17:00,
2013-02-06 21:19:00,31.6,26.5,30.22,WSW,243,0.0,2.0,81,0.00,,,0.00,0.00,VWS V14.01,2013-02-07 02:19:00,
2013-02-06 21:21:00,31.6,26.5,30.22,WSW,243,0.0,1.0,81,0.00,,,0.00,0.00,VWS V14.01,2013-02-07 02:21:00,
2013-02-06 21:22:00,31.6,26.5,30.22,WSW,243,0.0,0.0,81,0.00,,,0.00,0.00,VWS V14.01,2013-02-07 02:22:00,
2013-02-06 21:24:00,31.6,26.5,30.22,WSW,243,2.0,2.0,81,0.00,,,0.00,0.00,VWS V14.01,2013-02-07 02:24:00,
2013-02-06 21:26:00,31.6,26.5,30.22,WSW,243,0.0,1.0,81,0.00,,,0.00,0.00,VWS V14.01,2013-02-07 02:26:00,
2013-02-06 21:27:00,31.6,26.5,30.22,WSW,243,3.0,4.0,81,0.00,,,0.00,0.00,VWS V14.01,2013-02-07 02:27:00,
2013-02-06 21:29:00,31.6,26.5,30.22,WSW,242,0.0,4.0,81,0.00,,,0.00,0.00,VWS V14.01,2013-02-07 02:29:00,
2013-02-06 21:31:00,31.6,26.5,30.22,WSW,242,0.0,3.0,81,0.00,,,0.00,0.00,VWS V14.01,2013-02-07 02:31:00,
2013-02-06 21:32:00,31.6,26.5,30.22,WSW,242,3.0,3.0,81,0.00,,,0.00,0.00,VWS V14.01,2013-02-07 02:32:00,
2013-02-06 21:34:00,31.5,26.4,30.22,WSW,242,2.0,3.0,81,0.00,,,0.00,0.00,VWS V14.01,2013-02-07 02:34:00,
2013-02-06 21:36:00,31.5,26.4,30.22,WSW,242,2.0,2.0,81,0.00,,,0.00,0.00,VWS V14.01,2013-02-07 02:36:00,
2013-02-06 21:37:00,31.5,26.4,30.22,WSW,242,1.0,2.0,81,0.00,,,0.00,0.00,VWS V14.01,2013-02-07 02:37:00,
2013-02-06 21:39:00,31.5,26.4,30.22,WSW,242,0.0,3.0,81,0.00,,,0.00,0.00,VWS V14.01,2013-02-07 02:39:00,
2013-02-06 21:41:00,31.4,26.2,30.22,WSW,242,1.0,2.0,81,0.00,,,0.00,0.00,VWS V14.01,2013-02-07 02:41:00,
2013-02-06 21:42:00,31.4,26.2,30.22,WSW,242,0.0,1.0,81,0.00,,,0.00,0.00,VWS V14.01,2013-02-07 02:42:00,
2013-02-06 21:44:00,31.4,26.2,30.22,WSW,242,0.0,2.0,81,0.00,,,0.00,0.00,VWS V14.01,2013-02-07 02:44:00,
2013-02-06 21:46:00,31.4,26.2,30.22,WSW,242,0.0,0.0,81,0.00,,,0.00,0.00,VWS V14.01,2013-02-07 02:46:00,
2013-02-06 21:47:00,31.4,26.2,30.22,WSW,242,0.0,0.0,81,0.00,,,0.00,0.00,VWS V14.01,2013-02-07 02:47:00,
2013-02-06 21:49:00,31.3,26.2,30.22,WSW,242,1.0,3.0,81,0.00,,,0.00,0.00,VWS V14.01,2013-02-07 02:49:00,
2013-02-06 21:51:00,31.3,26.2,30.22,WSW,242,0.0,0.0,81,0.00,,,0.00,0.00,VWS V14.01,2013-02-07 02:51:00,
2013-02-06 21:52:00,31.2,26.1,30.22,WSW,242,0.0,1.0,81,0.00,,,0.00,0.00,VWS V14.01,2013-02-07 02:52:00,
2013-02-06 21:54:00,31.2,26.1,30.22,WSW,242,0.0,0.0,81,0.00,,,0.00,0.00,VWS V14.01,2013-02-07 02:54:00,
2013-02-06 21:56:00,31.2,26.1,30.22,WSW,242,0.0,1.0,81,0.00,,,0.00,0.00,VWS V14.01,2013-02-07 02:56:00,
2013-02-06 21:57:00,31.1,26.0,30.22,WSW,242,0.0,0.0,81,0.00,,,0.00,0.00,VWS V14.01,2013-02-07 02:57:00,
2013-02-06 21:59:00,31.1,26.3,30.22,WSW,242,0.0,0.0,82,0.00,,,0.00,0.00,VWS V14.01,2013-02-07 02:59:00,
2013-02-06 22:01:00,31.1,26.3,30.22,WSW,242,1.0,3.0,82,0.00,,,0.00,0.00,VWS V14.01,2013-02-07 03:01:00,
2013-02-06 22:02:00,31.1,26.3,30.22,WSW,242,0.0,0.0,82,0.00,,,0.00,0.00,VWS V14.01,2013-02-07 03:02:00,
2013-02-06 22:04:00,31.0,25.9,30.22,WSW,242,0.0,0.0,81,0.00,,,0.00,0.00,VWS V14.01,2013-02-07 03:04:00,
2013-02-06 22:06:00,31.0,26.2,30.23,WSW,242,0.0,0.0,82,0.00,,,0.00,0.00,VWS V14.01,2013-02-07 03:06:00,
2013-02-06 22:07:00,31.0,26.2,30.23,WSW,242,0.0,0.0,82,0.00,,,0.00,0.00,VWS V14.01,2013-02-07 03:07:00,
2013-02-06 22:08:00,30.9,26.1,30.23,WSW,242,0.0,0.0,82,0.00,,,0.00,0.00,VWS V14.01,2013-02-07 03:08:00,
2013-02-06 22:09:00,30.9,26.1,30.23,WSW,242,0.0,0.0,82,0.00,,,0.00,0.00,VWS V14.01,2013-02-07 03:09:00,
2013-02-06 22:11:00,30.8,26.0,30.22,WSW,242,0.0,0.0,82,0.00,,,0.00,0.00,VWS V14.01,2013-02-07 03:11:00,
2013-02-06 22:12:00,30.8,26.0,30.22,WSW,242,1.0,1.0,82,0.00,,,0.00,0.00,VWS V14.01,2013-02-07 03:12:00,
2013-02-06 22:13:00,30.8,26.0,30.22,WSW,242,0.0,1.0,82,0.00,,,0.00,0.00,VWS V14.01,2013-02-07 03:13:00,
2013-02-06 22:14:00,30.7,25.9,30.22,WSW,242,1.0,2.0,82,0.00,,,0.00,0.00,VWS V14.01,2013-02-07 03:14:00,
2013-02-06 22:17:00,30.6,25.8,30.22,WSW,242,0.0,3.0,82,0.00,,,0.00,0.00,VWS V14.01,2013-02-07 03:17:00,
2013-02-06 22:18:00,30.6,25.8,30.22,WSW,242,0.0,1.0,82,0.00,,,0.00,0.00,VWS V14.01,2013-02-07 03:18:00,
2013-02-06 22:19:00,30.6,25.8,30.22,WSW,242,0.0,2.0,82,0.00,,,0.00,0.00,VWS V14.01,2013-02-07 03:19:00,
2013-02-06 22:22:00,30.6,26.1,30.22,WSW,242,0.0,0.0,83,0.00,,,0.00,0.00,VWS V14.01,2013-02-07 03:22:00,
2013-02-06 22:23:00,30.5,26.0,30.22,WSW,242,0.0,1.0,83,0.00,,,0.00,0.00,VWS V14.01,2013-02-07 03:23:00,
2013-02-06 22:24:00,30.5,26.0,30.22,WSW,242,0.0,1.0,83,0.00,,,0.00,0.00,VWS V14.01,2013-02-07 03:24:00,
2013-02-06 22:27:00,30.5,26.0,30.22,WSW,242,0.0,2.0,83,0.00,,,0.00,0.00,VWS V14.01,2013-02-07 03:27:00,
2013-02-06 22:28:00,30.5,26.0,30.22,WSW,242,0.0,0.0,83,0.00,,,0.00,0.00,VWS V14.01,2013-02-07 03:28:00,
2013-02-06 22:29:00,30.5,26.0,30.22,WSW,242,0.0,0.0,83,0.00,,,0.00,0.00,VWS V14.01,2013-02-07 03:29:00,
2013-02-06 22:32:00,30.5,26.0,30.22,WSW,242,0.0,0.0,83,0.00,,,0.00,0.00,VWS V14.01,2013-02-07 03:32:00,
2013-02-06 22:33:00,30.5,26.0,30.22,WSW,242,0.0,1.0,83,0.00,,,0.00,0.00,VWS V14.01,2013-02-07 03:33:00,
2013-02-06 22:34:00,30.4,25.9,30.22,WSW,242,1.0,2.0,83,0.00,,,0.00,0.00,VWS V14.01,2013-02-07 03:34:00,
2013-02-06 22:37:00,30.4,25.9,30.21,WSW,242,0.0,3.0,83,0.00,,,0.00,0.00,VWS V14.01,2013-02-07 03:37:00,
2013-02-06 22:38:00,30.4,25.9,30.21,WSW,242,0.0,2.0,83,0.00,,,0.00,0.00,VWS V14.01,2013-02-07 03:38:00,
2013-02-06 22:39:00,30.3,26.1,30.21,WSW,242,0.0,3.0,84,0.00,,,0.00,0.00,VWS V14.01,2013-02-07 03:39:00,
2013-02-06 22:42:00,30.3,26.1,30.21,WSW,242,2.0,2.0,84,0.00,,,0.00,0.00,VWS V14.01,2013-02-07 03:42:00,
2013-02-06 22:43:00,30.3,26.1,30.21,WSW,242,3.0,3.0,84,0.00,,,0.00,0.00,VWS V14.01,2013-02-07 03:43:00,
2013-02-06 22:44:00,30.3,26.1,30.21,WSW,242,2.0,2.0,84,0.00,,,0.00,0.00,VWS V14.01,2013-02-07 03:44:00,
2013-02-06 22:47:00,30.3,26.1,30.20,WSW,242,2.0,2.0,84,0.00,,,0.00,0.00,VWS V14.01,2013-02-07 03:47:00,
2013-02-06 22:48:00,30.3,26.1,30.20,WSW,242,2.0,3.0,84,0.00,,,0.00,0.00,VWS V14.01,2013-02-07 03:48:00,
2013-02-06 22:49:00,30.3,26.1,30.19,WSW,237,3.0,5.0,84,0.00,,,0.00,0.00,VWS V14.01,2013-02-07 03:49:00,
2013-02-06 22:52:00,30.3,26.1,30.19,SW,236,0.0,4.0,84,0.00,,,0.00,0.00,VWS V14.01,2013-02-07 03:52:00,
2013-02-06 22:53:00,30.3,26.1,30.19,SW,236,2.0,3.0,84,0.00,,,0.00,0.00,VWS V14.01,2013-02-07 03:53:00,
2013-02-06 22:54:00,30.3,26.1,30.19,SW,236,3.0,3.0,84,0.00,,,0.00,0.00,VWS V14.01,2013-02-07 03:54:00,
2013-02-06 22:57:00,30.3,26.1,30.19,SW,235,3.0,4.0,84,0.00,,,0.00,0.00,VWS V14.01,2013-02-07 03:57:00,
2013-02-06 22:58:00,30.3,26.1,30.19,SW,226,4.0,6.0,84,0.00,,,0.00,0.00,VWS V14.01,2013-02-07 03:58:00,
2013-02-06 22:59:00,30.3,26.1,30.19,SW,227,4.0,4.0,84,0.00,,,0.00,0.00,VWS V14.01,2013-02-07 03:59:00,
2013-02-06 23:02:00,30.4,26.1,30.19,SW,227,3.0,4.0,84,0.00,,,0.00,0.00,VWS V14.01,2013-02-07 04:02:00,
2013-02-06 23:03:00,30.4,26.1,30.19,SW,227,3.0,5.0,84,0.00,,,0.00,0.00,VWS V14.01,2013-02-07 04:03:00,
2013-02-06 23:05:00,30.5,26.2,30.19,SW,227,3.0,4.0,84,0.00,,,0.00,0.00,VWS V14.01,2013-02-07 04:05:00,
2013-02-06 23:07:00,30.5,26.2,30.19,SW,227,2.0,3.0,84,0.00,,,0.00,0.00,VWS V14.01,2013-02-07 04:07:00,
2013-02-06 23:08:00,30.5,26.2,30.19,SW,233,3.0,5.0,84,0.00,,,0.00,0.00,VWS V14.01,2013-02-07 04:08:00,
2013-02-06 23:10:00,30.6,26.4,30.19,SW,233,1.0,3.0,84,0.00,,,0.00,0.00,VWS V14.01,2013-02-07 04:10:00,
2013-02-06 23:12:00,30.6,26.4,30.19,SW,233,5.0,5.0,84,0.00,,,0.00,0.00,VWS V14.01,2013-02-07 04:12:00,
2013-02-06 23:14:00,30.6,26.4,30.19,SW,226,3.0,4.0,84,0.00,,,0.00,0.00,VWS V14.01,2013-02-07 04:14:00,
2013-02-06 23:15:00,30.6,26.4,30.19,SW,226,0.0,4.0,84,0.00,,,0.00,0.00,VWS V14.01,2013-02-07 04:15:00,
2013-02-06 23:17:00,30.6,26.4,30.20,West,262,2.0,2.0,84,0.00,,,0.00,0.00,VWS V14.01,2013-02-07 04:17:00,
2013-02-06 23:19:00,30.7,26.5,30.20,West,262,3.0,4.0,84,0.00,,,0.00,0.00,VWS V14.01,2013-02-07 04:19:00,
2013-02-06 23:20:00,30.7,26.5,30.20,West,261,4.0,4.0,84,0.00,,,0.00,0.00,VWS V14.01,2013-02-07 04:20:00,
2013-02-06 23:22:00,30.7,26.2,30.20,West,259,4.0,5.0,83,0.00,,,0.00,0.00,VWS V14.01,2013-02-07 04:22:00,
2013-02-06 23:24:00,30.7,26.2,30.20,WSW,254,2.0,4.0,83,0.00,,,0.00,0.00,VWS V14.01,2013-02-07 04:24:00,
2013-02-06 23:25:00,30.7,26.2,30.20,West,259,2.0,5.0,83,0.00,,,0.00,0.00,VWS V14.01,2013-02-07 04:25:00,
2013-02-06 23:27:00,30.8,26.5,30.20,West,259,0.0,1.0,84,0.00,,,0.00,0.00,VWS V14.01,2013-02-07 04:27:00,
2013-02-06 23:29:00,30.8,26.3,30.20,West,261,4.0,4.0,83,0.00,,,0.00,0.00,VWS V14.01,2013-02-07 04:29:00,
2013-02-06 23:30:00,30.8,26.3,30.21,West,261,0.0,0.0,83,0.00,,,0.00,0.00,VWS V14.01,2013-02-07 04:30:00,
2013-02-06 23:32:00,30.9,26.4,30.21,WSW,246,3.0,4.0,83,0.00,,,0.00,0.00,VWS V14.01,2013-02-07 04:32:00,
2013-02-06 23:33:00,30.9,26.4,30.21,WSW,246,1.0,4.0,83,0.00,,,0.00,0.00,VWS V14.01,2013-02-07 04:33:00,
2013-02-06 23:34:00,30.9,26.4,30.21,WSW,246,2.0,2.0,83,0.00,,,0.00,0.00,VWS V14.01,2013-02-07 04:34:00,
2013-02-06 23:35:00,30.9,26.4,30.21,WSW,246,2.0,3.0,83,0.00,,,0.00,0.00,VWS V14.01,2013-02-07 04:35:00,
2013-02-06 23:37:00,31.0,26.5,30.21,WSW,244,1.0,3.0,83,0.00,,,0.00,0.00,VWS V14.01,2013-02-07 04:37:00,
2013-02-06 23:38:00,31.0,26.5,30.21,WSW,244,1.0,3.0,83,0.00,,,0.00,0.00,VWS V14.01,2013-02-07 04:38:00,
2013-02-06 23:39:00,31.0,26.5,30.21,WSW,244,0.0,0.0,83,0.00,,,0.00,0.00,VWS V14.01,2013-02-07 04:39:00,
2013-02-06 23:40:00,31.0,26.5,30.21,WSW,244,0.0,1.0,83,0.00,,,0.00,0.00,VWS V14.01,2013-02-07 04:40:00,
2013-02-06 23:42:00,31.0,26.5,30.21,WSW,244,1.0,2.0,83,0.00,,,0.00,0.00,VWS V14.01,2013-02-07 04:42:00,
2013-02-06 23:43:00,31.0,26.5,30.21,WSW,244,2.0,3.0,83,0.00,,,0.00,0.00,VWS V14.01,2013-02-07 04:43:00,
2013-02-06 23:44:00,31.0,26.5,30.21,WSW,244,5.0,5.0,83,0.00,,,0.00,0.00,VWS V14.01,2013-02-07 04:44:00,
2013-02-06 23:45:00,31.0,26.5,30.21,WSW,242,0.0,1.0,83,0.00,,,0.00,0.00,VWS V14.01,2013-02-07 04:45:00,
2013-02-06 23:47:00,31.1,26.5,30.21,WSW,242,3.0,4.0,83,0.00,,,0.00,0.00,VWS V14.01,2013-02-07 04:47:00,
2013-02-06 23:48:00,31.1,26.5,30.21,WSW,242,0.0,4.0,83,0.00,,,0.00,0.00,VWS V14.01,2013-02-07 04:48:00,
2013-02-06 23:49:00,31.1,26.5,30.21,WSW,237,3.0,5.0,83,0.00,,,0.00,0.00,VWS V14.01,2013-02-07 04:49:00,
2013-02-06 23:50:00,31.1,26.5,30.21,SW,234,3.0,4.0,83,0.00,,,0.00,0.00,VWS V14.01,2013-02-07 04:50:00,
2013-02-06 23:52:00,31.2,26.6,30.21,SW,234,0.0,0.0,83,0.00,,,0.00,0.00,VWS V14.01,2013-02-07 04:52:00,
2013-02-06 23:53:00,31.2,26.6,30.21,SW,234,0.0,0.0,83,0.00,,,0.00,0.00,VWS V14.01,2013-02-07 04:53:00,
2013-02-06 23:54:00,31.2,26.6,30.21,SW,234,4.0,6.0,83,0.00,,,0.00,0.00,VWS V14.01,2013-02-07 04:54:00,
2013-02-06 23:55:00,31.2,26.6,30.20,SW,234,1.0,3.0,83,0.00,,,0.00,0.00,VWS V14.01,2013-02-07 04:55:00,
2013-02-06 23:57:00,31.2,26.6,30.20,SW,234,4.0,4.0,83,0.00,,,0.00,0.00,VWS V14.01,2013-02-07 04:57:00,
2013-02-06 23:58:00,31.2,26.6,30.20,SW,234,4.0,5.0,83,0.00,,,0.00,0.00,VWS V14.01,2013-02-07 04:58:00,
2013-02-06 23:59:00,31.2,26.6,30.20,SW,234,2.0,3.0,83,0.00,,,0.00,0.00,VWS V14.01,2013-02-07 04:59:00,